<?xml version="1.0" encoding="UTF-8" standalone="no" ?>
<gpx xmlns="http://www.topografix.com/GPX/1/1" xmlns:xsi="http://www.w3.org/2001/XMLSchema-instance" xsi:schemaLocation="http://www.topografix.com/GPX/1/1 http://www.topografix.com/GPX/1/1/gpx.xsd" version="1.1" creator="VisuGPX - https://www.visugpx.com">
  <metadata>
    <name>Autour de Jouy le Moutier</name>
    <desc><![CDATA[Randonnée autour de Jouy le Moutier]]></desc>
  </metadata>
  <trk>
    <name><![CDATA[MA-rando-2018-08-08-222544]]></name>
    <trkseg>
      <trkpt lat="49.01438" lon="2.05867">
        <ele>12</ele>
        <time>2018-08-08T17:18:19Z</time>
      </trkpt>
      <trkpt lat="49.01436" lon="2.05854">
        <ele>15</ele>
        <time>2018-08-08T17:19:49Z</time>
      </trkpt>
      <trkpt lat="49.01443" lon="2.05844">
        <ele>15</ele>
        <time>2018-08-08T17:20:01Z</time>
      </trkpt>
      <trkpt lat="49.01444" lon="2.0583">
        <ele>16</ele>
        <time>2018-08-08T17:20:11Z</time>
      </trkpt>
      <trkpt lat="49.01439" lon="2.05816">
        <ele>16</ele>
        <time>2018-08-08T17:20:20Z</time>
      </trkpt>
      <trkpt lat="49.01434" lon="2.05803">
        <ele>16</ele>
        <time>2018-08-08T17:20:28Z</time>
      </trkpt>
      <trkpt lat="49.01429" lon="2.05791">
        <ele>17</ele>
        <time>2018-08-08T17:20:36Z</time>
      </trkpt>
      <trkpt lat="49.01424" lon="2.05778">
        <ele>18</ele>
        <time>2018-08-08T17:20:44Z</time>
      </trkpt>
      <trkpt lat="49.01419" lon="2.05765">
        <ele>19</ele>
        <time>2018-08-08T17:20:52Z</time>
      </trkpt>
      <trkpt lat="49.01413" lon="2.05754">
        <ele>19</ele>
        <time>2018-08-08T17:20:58Z</time>
      </trkpt>
      <trkpt lat="49.01407" lon="2.05742">
        <ele>20</ele>
        <time>2018-08-08T17:21:07Z</time>
      </trkpt>
      <trkpt lat="49.01401" lon="2.05731">
        <ele>20</ele>
        <time>2018-08-08T17:21:18Z</time>
      </trkpt>
      <trkpt lat="49.01394" lon="2.05722">
        <ele>21</ele>
        <time>2018-08-08T17:21:27Z</time>
      </trkpt>
      <trkpt lat="49.01388" lon="2.05711">
        <ele>21</ele>
        <time>2018-08-08T17:21:36Z</time>
      </trkpt>
      <trkpt lat="49.01383" lon="2.05699">
        <ele>22</ele>
        <time>2018-08-08T17:21:44Z</time>
      </trkpt>
      <trkpt lat="49.01377" lon="2.05688">
        <ele>22</ele>
        <time>2018-08-08T17:21:51Z</time>
      </trkpt>
      <trkpt lat="49.01371" lon="2.05677">
        <ele>22</ele>
        <time>2018-08-08T17:22:00Z</time>
      </trkpt>
      <trkpt lat="49.01365" lon="2.05665">
        <ele>22</ele>
        <time>2018-08-08T17:22:08Z</time>
      </trkpt>
      <trkpt lat="49.01359" lon="2.05654">
        <ele>23</ele>
        <time>2018-08-08T17:22:15Z</time>
      </trkpt>
      <trkpt lat="49.01353" lon="2.05643">
        <ele>23</ele>
        <time>2018-08-08T17:22:23Z</time>
      </trkpt>
      <trkpt lat="49.01347" lon="2.05631">
        <ele>23</ele>
        <time>2018-08-08T17:22:31Z</time>
      </trkpt>
      <trkpt lat="49.01342" lon="2.05618">
        <ele>23</ele>
        <time>2018-08-08T17:22:38Z</time>
      </trkpt>
      <trkpt lat="49.01336" lon="2.05607">
        <ele>24</ele>
        <time>2018-08-08T17:22:48Z</time>
      </trkpt>
      <trkpt lat="49.01331" lon="2.05621">
        <ele>23</ele>
        <time>2018-08-08T17:23:01Z</time>
      </trkpt>
      <trkpt lat="49.01336" lon="2.05634">
        <ele>22</ele>
        <time>2018-08-08T17:23:11Z</time>
      </trkpt>
      <trkpt lat="49.01336" lon="2.05648">
        <ele>21</ele>
        <time>2018-08-08T17:23:23Z</time>
      </trkpt>
      <trkpt lat="49.01327" lon="2.05653">
        <ele>21</ele>
        <time>2018-08-08T17:23:30Z</time>
      </trkpt>
      <trkpt lat="49.01319" lon="2.05661">
        <ele>21</ele>
        <time>2018-08-08T17:23:39Z</time>
      </trkpt>
      <trkpt lat="49.01315" lon="2.05673">
        <ele>21</ele>
        <time>2018-08-08T17:23:45Z</time>
      </trkpt>
      <trkpt lat="49.01308" lon="2.05685">
        <ele>21</ele>
        <time>2018-08-08T17:23:55Z</time>
      </trkpt>
      <trkpt lat="49.01302" lon="2.05696">
        <ele>21</ele>
        <time>2018-08-08T17:24:01Z</time>
      </trkpt>
      <trkpt lat="49.01295" lon="2.05706">
        <ele>20</ele>
        <time>2018-08-08T17:24:09Z</time>
      </trkpt>
      <trkpt lat="49.01287" lon="2.05716">
        <ele>19</ele>
        <time>2018-08-08T17:24:18Z</time>
      </trkpt>
      <trkpt lat="49.01279" lon="2.05723">
        <ele>19</ele>
        <time>2018-08-08T17:24:24Z</time>
      </trkpt>
      <trkpt lat="49.01271" lon="2.0573">
        <ele>18</ele>
        <time>2018-08-08T17:24:31Z</time>
      </trkpt>
      <trkpt lat="49.01263" lon="2.0574">
        <ele>18</ele>
        <time>2018-08-08T17:24:38Z</time>
      </trkpt>
      <trkpt lat="49.01255" lon="2.0575">
        <ele>17</ele>
        <time>2018-08-08T17:24:45Z</time>
      </trkpt>
      <trkpt lat="49.01247" lon="2.0576">
        <ele>17</ele>
        <time>2018-08-08T17:24:51Z</time>
      </trkpt>
      <trkpt lat="49.01239" lon="2.05769">
        <ele>17</ele>
        <time>2018-08-08T17:24:57Z</time>
      </trkpt>
      <trkpt lat="49.01232" lon="2.0578">
        <ele>18</ele>
        <time>2018-08-08T17:25:05Z</time>
      </trkpt>
      <trkpt lat="49.01225" lon="2.05791">
        <ele>17</ele>
        <time>2018-08-08T17:25:13Z</time>
      </trkpt>
      <trkpt lat="49.01217" lon="2.05801">
        <ele>17</ele>
        <time>2018-08-08T17:25:21Z</time>
      </trkpt>
      <trkpt lat="49.0121" lon="2.05812">
        <ele>17</ele>
        <time>2018-08-08T17:25:28Z</time>
      </trkpt>
      <trkpt lat="49.01203" lon="2.05822">
        <ele>17</ele>
        <time>2018-08-08T17:25:35Z</time>
      </trkpt>
      <trkpt lat="49.01196" lon="2.05831">
        <ele>17</ele>
        <time>2018-08-08T17:25:42Z</time>
      </trkpt>
      <trkpt lat="49.01189" lon="2.05841">
        <ele>17</ele>
        <time>2018-08-08T17:25:49Z</time>
      </trkpt>
      <trkpt lat="49.01183" lon="2.05852">
        <ele>17</ele>
        <time>2018-08-08T17:25:56Z</time>
      </trkpt>
      <trkpt lat="49.01176" lon="2.05862">
        <ele>17</ele>
        <time>2018-08-08T17:26:03Z</time>
      </trkpt>
      <trkpt lat="49.01169" lon="2.05874">
        <ele>16</ele>
        <time>2018-08-08T17:26:10Z</time>
      </trkpt>
      <trkpt lat="49.01163" lon="2.05885">
        <ele>16</ele>
        <time>2018-08-08T17:26:17Z</time>
      </trkpt>
      <trkpt lat="49.01157" lon="2.05897">
        <ele>16</ele>
        <time>2018-08-08T17:26:24Z</time>
      </trkpt>
      <trkpt lat="49.0115" lon="2.05909">
        <ele>17</ele>
        <time>2018-08-08T17:26:31Z</time>
      </trkpt>
      <trkpt lat="49.01142" lon="2.05919">
        <ele>17</ele>
        <time>2018-08-08T17:26:38Z</time>
      </trkpt>
      <trkpt lat="49.01134" lon="2.05928">
        <ele>17</ele>
        <time>2018-08-08T17:26:45Z</time>
      </trkpt>
      <trkpt lat="49.01129" lon="2.05939">
        <ele>17</ele>
        <time>2018-08-08T17:26:52Z</time>
      </trkpt>
      <trkpt lat="49.01122" lon="2.0595">
        <ele>17</ele>
        <time>2018-08-08T17:26:59Z</time>
      </trkpt>
      <trkpt lat="49.01115" lon="2.05961">
        <ele>17</ele>
        <time>2018-08-08T17:27:06Z</time>
      </trkpt>
      <trkpt lat="49.01108" lon="2.05971">
        <ele>17</ele>
        <time>2018-08-08T17:27:12Z</time>
      </trkpt>
      <trkpt lat="49.01102" lon="2.05981">
        <ele>17</ele>
        <time>2018-08-08T17:27:18Z</time>
      </trkpt>
      <trkpt lat="49.01095" lon="2.05991">
        <ele>18</ele>
        <time>2018-08-08T17:27:26Z</time>
      </trkpt>
      <trkpt lat="49.01088" lon="2.06002">
        <ele>17</ele>
        <time>2018-08-08T17:27:34Z</time>
      </trkpt>
      <trkpt lat="49.0108" lon="2.06012">
        <ele>17</ele>
        <time>2018-08-08T17:27:41Z</time>
      </trkpt>
      <trkpt lat="49.01074" lon="2.06022">
        <ele>17</ele>
        <time>2018-08-08T17:27:48Z</time>
      </trkpt>
      <trkpt lat="49.01067" lon="2.06032">
        <ele>17</ele>
        <time>2018-08-08T17:27:55Z</time>
      </trkpt>
      <trkpt lat="49.01061" lon="2.06042">
        <ele>17</ele>
        <time>2018-08-08T17:28:02Z</time>
      </trkpt>
      <trkpt lat="49.01053" lon="2.06052">
        <ele>17</ele>
        <time>2018-08-08T17:28:09Z</time>
      </trkpt>
      <trkpt lat="49.01046" lon="2.06061">
        <ele>16</ele>
        <time>2018-08-08T17:28:16Z</time>
      </trkpt>
      <trkpt lat="49.01039" lon="2.06071">
        <ele>16</ele>
        <time>2018-08-08T17:28:23Z</time>
      </trkpt>
      <trkpt lat="49.01031" lon="2.06081">
        <ele>15</ele>
        <time>2018-08-08T17:28:30Z</time>
      </trkpt>
      <trkpt lat="49.01023" lon="2.0609">
        <ele>15</ele>
        <time>2018-08-08T17:28:37Z</time>
      </trkpt>
      <trkpt lat="49.01015" lon="2.06098">
        <ele>16</ele>
        <time>2018-08-08T17:28:44Z</time>
      </trkpt>
      <trkpt lat="49.01007" lon="2.06108">
        <ele>16</ele>
        <time>2018-08-08T17:28:51Z</time>
      </trkpt>
      <trkpt lat="49.01" lon="2.06117">
        <ele>16</ele>
        <time>2018-08-08T17:28:58Z</time>
      </trkpt>
      <trkpt lat="49.00992" lon="2.06127">
        <ele>16</ele>
        <time>2018-08-08T17:29:05Z</time>
      </trkpt>
      <trkpt lat="49.00984" lon="2.06135">
        <ele>16</ele>
        <time>2018-08-08T17:29:12Z</time>
      </trkpt>
      <trkpt lat="49.00977" lon="2.06143">
        <ele>17</ele>
        <time>2018-08-08T17:29:19Z</time>
      </trkpt>
      <trkpt lat="49.0097" lon="2.06152">
        <ele>17</ele>
        <time>2018-08-08T17:29:25Z</time>
      </trkpt>
      <trkpt lat="49.00963" lon="2.06161">
        <ele>17</ele>
        <time>2018-08-08T17:29:32Z</time>
      </trkpt>
      <trkpt lat="49.00957" lon="2.06173">
        <ele>16</ele>
        <time>2018-08-08T17:29:39Z</time>
      </trkpt>
      <trkpt lat="49.0095" lon="2.06184">
        <ele>17</ele>
        <time>2018-08-08T17:29:45Z</time>
      </trkpt>
      <trkpt lat="49.00941" lon="2.06193">
        <ele>17</ele>
        <time>2018-08-08T17:29:52Z</time>
      </trkpt>
      <trkpt lat="49.00933" lon="2.06201">
        <ele>16</ele>
        <time>2018-08-08T17:30:00Z</time>
      </trkpt>
      <trkpt lat="49.00926" lon="2.0621">
        <ele>16</ele>
        <time>2018-08-08T17:30:07Z</time>
      </trkpt>
      <trkpt lat="49.00919" lon="2.06222">
        <ele>16</ele>
        <time>2018-08-08T17:30:14Z</time>
      </trkpt>
      <trkpt lat="49.00911" lon="2.06232">
        <ele>17</ele>
        <time>2018-08-08T17:30:21Z</time>
      </trkpt>
      <trkpt lat="49.00903" lon="2.06241">
        <ele>17</ele>
        <time>2018-08-08T17:30:28Z</time>
      </trkpt>
      <trkpt lat="49.00894" lon="2.06251">
        <ele>17</ele>
        <time>2018-08-08T17:30:35Z</time>
      </trkpt>
      <trkpt lat="49.00887" lon="2.06259">
        <ele>17</ele>
        <time>2018-08-08T17:30:42Z</time>
      </trkpt>
      <trkpt lat="49.0088" lon="2.0627">
        <ele>18</ele>
        <time>2018-08-08T17:30:49Z</time>
      </trkpt>
      <trkpt lat="49.00872" lon="2.06278">
        <ele>18</ele>
        <time>2018-08-08T17:30:55Z</time>
      </trkpt>
      <trkpt lat="49.00865" lon="2.06287">
        <ele>19</ele>
        <time>2018-08-08T17:31:02Z</time>
      </trkpt>
      <trkpt lat="49.0086" lon="2.06299">
        <ele>19</ele>
        <time>2018-08-08T17:31:10Z</time>
      </trkpt>
      <trkpt lat="49.00853" lon="2.06309">
        <ele>18</ele>
        <time>2018-08-08T17:31:18Z</time>
      </trkpt>
      <trkpt lat="49.00846" lon="2.06319">
        <ele>18</ele>
        <time>2018-08-08T17:31:25Z</time>
      </trkpt>
      <trkpt lat="49.00839" lon="2.06328">
        <ele>18</ele>
        <time>2018-08-08T17:31:31Z</time>
      </trkpt>
      <trkpt lat="49.00834" lon="2.0634">
        <ele>18</ele>
        <time>2018-08-08T17:31:38Z</time>
      </trkpt>
      <trkpt lat="49.00829" lon="2.06352">
        <ele>17</ele>
        <time>2018-08-08T17:31:44Z</time>
      </trkpt>
      <trkpt lat="49.00823" lon="2.06363">
        <ele>17</ele>
        <time>2018-08-08T17:31:51Z</time>
      </trkpt>
      <trkpt lat="49.00814" lon="2.06368">
        <ele>18</ele>
        <time>2018-08-08T17:32:00Z</time>
      </trkpt>
      <trkpt lat="49.00807" lon="2.06357">
        <ele>18</ele>
        <time>2018-08-08T17:32:07Z</time>
      </trkpt>
      <trkpt lat="49.00802" lon="2.06344">
        <ele>19</ele>
        <time>2018-08-08T17:32:13Z</time>
      </trkpt>
      <trkpt lat="49.00796" lon="2.06332">
        <ele>19</ele>
        <time>2018-08-08T17:32:20Z</time>
      </trkpt>
      <trkpt lat="49.0079" lon="2.06321">
        <ele>19</ele>
        <time>2018-08-08T17:32:27Z</time>
      </trkpt>
      <trkpt lat="49.00785" lon="2.06308">
        <ele>19</ele>
        <time>2018-08-08T17:32:35Z</time>
      </trkpt>
      <trkpt lat="49.0078" lon="2.06296">
        <ele>19</ele>
        <time>2018-08-08T17:32:43Z</time>
      </trkpt>
      <trkpt lat="49.00775" lon="2.06283">
        <ele>19</ele>
        <time>2018-08-08T17:32:49Z</time>
      </trkpt>
      <trkpt lat="49.00769" lon="2.06272">
        <ele>19</ele>
        <time>2018-08-08T17:32:56Z</time>
      </trkpt>
      <trkpt lat="49.00763" lon="2.06259">
        <ele>20</ele>
        <time>2018-08-08T17:33:03Z</time>
      </trkpt>
      <trkpt lat="49.00757" lon="2.06249">
        <ele>20</ele>
        <time>2018-08-08T17:33:10Z</time>
      </trkpt>
      <trkpt lat="49.00753" lon="2.06235">
        <ele>20</ele>
        <time>2018-08-08T17:33:17Z</time>
      </trkpt>
      <trkpt lat="49.00748" lon="2.06223">
        <ele>20</ele>
        <time>2018-08-08T17:33:25Z</time>
      </trkpt>
      <trkpt lat="49.00742" lon="2.06211">
        <ele>20</ele>
        <time>2018-08-08T17:33:33Z</time>
      </trkpt>
      <trkpt lat="49.00737" lon="2.06198">
        <ele>20</ele>
        <time>2018-08-08T17:33:39Z</time>
      </trkpt>
      <trkpt lat="49.00737" lon="2.06184">
        <ele>20</ele>
        <time>2018-08-08T17:34:09Z</time>
      </trkpt>
      <trkpt lat="49.00746" lon="2.0618">
        <ele>19</ele>
        <time>2018-08-08T17:34:20Z</time>
      </trkpt>
      <trkpt lat="49.00754" lon="2.06173">
        <ele>18</ele>
        <time>2018-08-08T17:34:29Z</time>
      </trkpt>
      <trkpt lat="49.00752" lon="2.06159">
        <ele>17</ele>
        <time>2018-08-08T17:34:42Z</time>
      </trkpt>
      <trkpt lat="49.00742" lon="2.06163">
        <ele>17</ele>
        <time>2018-08-08T17:34:51Z</time>
      </trkpt>
      <trkpt lat="49.00734" lon="2.06168">
        <ele>17</ele>
        <time>2018-08-08T17:34:59Z</time>
      </trkpt>
      <trkpt lat="49.00724" lon="2.06169">
        <ele>18</ele>
        <time>2018-08-08T17:35:13Z</time>
      </trkpt>
      <trkpt lat="49.00719" lon="2.06158">
        <ele>18</ele>
        <time>2018-08-08T17:35:21Z</time>
      </trkpt>
      <trkpt lat="49.00715" lon="2.06145">
        <ele>19</ele>
        <time>2018-08-08T17:35:29Z</time>
      </trkpt>
      <trkpt lat="49.00709" lon="2.06132">
        <ele>19</ele>
        <time>2018-08-08T17:35:36Z</time>
      </trkpt>
      <trkpt lat="49.00705" lon="2.06119">
        <ele>20</ele>
        <time>2018-08-08T17:35:43Z</time>
      </trkpt>
      <trkpt lat="49.007" lon="2.06106">
        <ele>21</ele>
        <time>2018-08-08T17:35:51Z</time>
      </trkpt>
      <trkpt lat="49.00695" lon="2.06094">
        <ele>20</ele>
        <time>2018-08-08T17:35:58Z</time>
      </trkpt>
      <trkpt lat="49.00689" lon="2.0608">
        <ele>20</ele>
        <time>2018-08-08T17:36:05Z</time>
      </trkpt>
      <trkpt lat="49.00684" lon="2.06067">
        <ele>20</ele>
        <time>2018-08-08T17:36:12Z</time>
      </trkpt>
      <trkpt lat="49.00678" lon="2.06056">
        <ele>20</ele>
        <time>2018-08-08T17:36:19Z</time>
      </trkpt>
      <trkpt lat="49.00674" lon="2.06044">
        <ele>20</ele>
        <time>2018-08-08T17:36:25Z</time>
      </trkpt>
      <trkpt lat="49.00668" lon="2.06031">
        <ele>20</ele>
        <time>2018-08-08T17:36:32Z</time>
      </trkpt>
      <trkpt lat="49.00664" lon="2.06017">
        <ele>20</ele>
        <time>2018-08-08T17:36:39Z</time>
      </trkpt>
      <trkpt lat="49.00659" lon="2.06004">
        <ele>21</ele>
        <time>2018-08-08T17:36:46Z</time>
      </trkpt>
      <trkpt lat="49.00654" lon="2.05991">
        <ele>20</ele>
        <time>2018-08-08T17:36:55Z</time>
      </trkpt>
      <trkpt lat="49.00648" lon="2.05979">
        <ele>20</ele>
        <time>2018-08-08T17:37:02Z</time>
      </trkpt>
      <trkpt lat="49.00641" lon="2.05968">
        <ele>20</ele>
        <time>2018-08-08T17:37:10Z</time>
      </trkpt>
      <trkpt lat="49.00635" lon="2.05957">
        <ele>20</ele>
        <time>2018-08-08T17:37:17Z</time>
      </trkpt>
      <trkpt lat="49.0063" lon="2.05944">
        <ele>20</ele>
        <time>2018-08-08T17:37:25Z</time>
      </trkpt>
      <trkpt lat="49.00625" lon="2.05931">
        <ele>20</ele>
        <time>2018-08-08T17:37:32Z</time>
      </trkpt>
      <trkpt lat="49.00622" lon="2.05916">
        <ele>20</ele>
        <time>2018-08-08T17:37:40Z</time>
      </trkpt>
      <trkpt lat="49.00619" lon="2.05903">
        <ele>20</ele>
        <time>2018-08-08T17:37:47Z</time>
      </trkpt>
      <trkpt lat="49.00615" lon="2.05889">
        <ele>21</ele>
        <time>2018-08-08T17:37:54Z</time>
      </trkpt>
      <trkpt lat="49.00611" lon="2.05875">
        <ele>21</ele>
        <time>2018-08-08T17:38:01Z</time>
      </trkpt>
      <trkpt lat="49.00608" lon="2.05861">
        <ele>22</ele>
        <time>2018-08-08T17:38:08Z</time>
      </trkpt>
      <trkpt lat="49.00604" lon="2.05847">
        <ele>23</ele>
        <time>2018-08-08T17:38:15Z</time>
      </trkpt>
      <trkpt lat="49.00601" lon="2.05833">
        <ele>24</ele>
        <time>2018-08-08T17:38:24Z</time>
      </trkpt>
      <trkpt lat="49.00598" lon="2.0582">
        <ele>24</ele>
        <time>2018-08-08T17:38:31Z</time>
      </trkpt>
      <trkpt lat="49.00594" lon="2.05806">
        <ele>24</ele>
        <time>2018-08-08T17:38:38Z</time>
      </trkpt>
      <trkpt lat="49.0059" lon="2.05794">
        <ele>24</ele>
        <time>2018-08-08T17:38:45Z</time>
      </trkpt>
      <trkpt lat="49.00585" lon="2.05781">
        <ele>25</ele>
        <time>2018-08-08T17:38:52Z</time>
      </trkpt>
      <trkpt lat="49.00583" lon="2.05766">
        <ele>25</ele>
        <time>2018-08-08T17:39:00Z</time>
      </trkpt>
      <trkpt lat="49.00576" lon="2.05756">
        <ele>25</ele>
        <time>2018-08-08T17:39:10Z</time>
      </trkpt>
      <trkpt lat="49.00567" lon="2.05749">
        <ele>25</ele>
        <time>2018-08-08T17:39:19Z</time>
      </trkpt>
      <trkpt lat="49.00559" lon="2.05743">
        <ele>25</ele>
        <time>2018-08-08T17:39:27Z</time>
      </trkpt>
      <trkpt lat="49.00553" lon="2.05732">
        <ele>25</ele>
        <time>2018-08-08T17:39:35Z</time>
      </trkpt>
      <trkpt lat="49.00548" lon="2.05719">
        <ele>25</ele>
        <time>2018-08-08T17:39:43Z</time>
      </trkpt>
      <trkpt lat="49.00544" lon="2.05706">
        <ele>24</ele>
        <time>2018-08-08T17:39:51Z</time>
      </trkpt>
      <trkpt lat="49.0054" lon="2.05692">
        <ele>25</ele>
        <time>2018-08-08T17:39:59Z</time>
      </trkpt>
      <trkpt lat="49.00536" lon="2.05678">
        <ele>25</ele>
        <time>2018-08-08T17:40:08Z</time>
      </trkpt>
      <trkpt lat="49.00533" lon="2.05664">
        <ele>25</ele>
        <time>2018-08-08T17:40:15Z</time>
      </trkpt>
      <trkpt lat="49.00529" lon="2.0565">
        <ele>25</ele>
        <time>2018-08-08T17:40:23Z</time>
      </trkpt>
      <trkpt lat="49.00525" lon="2.05637">
        <ele>26</ele>
        <time>2018-08-08T17:40:31Z</time>
      </trkpt>
      <trkpt lat="49.00525" lon="2.05623">
        <ele>26</ele>
        <time>2018-08-08T17:40:38Z</time>
      </trkpt>
      <trkpt lat="49.00525" lon="2.05608">
        <ele>26</ele>
        <time>2018-08-08T17:40:45Z</time>
      </trkpt>
      <trkpt lat="49.00525" lon="2.05594">
        <ele>26</ele>
        <time>2018-08-08T17:40:52Z</time>
      </trkpt>
      <trkpt lat="49.00524" lon="2.0558">
        <ele>26</ele>
        <time>2018-08-08T17:40:59Z</time>
      </trkpt>
      <trkpt lat="49.00524" lon="2.05565">
        <ele>26</ele>
        <time>2018-08-08T17:41:07Z</time>
      </trkpt>
      <trkpt lat="49.00524" lon="2.0555">
        <ele>26</ele>
        <time>2018-08-08T17:41:15Z</time>
      </trkpt>
      <trkpt lat="49.00523" lon="2.05536">
        <ele>27</ele>
        <time>2018-08-08T17:41:23Z</time>
      </trkpt>
      <trkpt lat="49.00532" lon="2.05537">
        <ele>27</ele>
        <time>2018-08-08T17:41:40Z</time>
      </trkpt>
      <trkpt lat="49.00541" lon="2.05533">
        <ele>28</ele>
        <time>2018-08-08T17:41:48Z</time>
      </trkpt>
      <trkpt lat="49.00546" lon="2.0552">
        <ele>28</ele>
        <time>2018-08-08T17:41:58Z</time>
      </trkpt>
      <trkpt lat="49.00543" lon="2.05507">
        <ele>28</ele>
        <time>2018-08-08T17:42:06Z</time>
      </trkpt>
      <trkpt lat="49.0054" lon="2.05493">
        <ele>29</ele>
        <time>2018-08-08T17:42:13Z</time>
      </trkpt>
      <trkpt lat="49.00537" lon="2.05479">
        <ele>30</ele>
        <time>2018-08-08T17:42:21Z</time>
      </trkpt>
      <trkpt lat="49.00535" lon="2.05465">
        <ele>30</ele>
        <time>2018-08-08T17:42:29Z</time>
      </trkpt>
      <trkpt lat="49.00531" lon="2.05452">
        <ele>31</ele>
        <time>2018-08-08T17:42:37Z</time>
      </trkpt>
      <trkpt lat="49.00529" lon="2.05437">
        <ele>32</ele>
        <time>2018-08-08T17:42:46Z</time>
      </trkpt>
      <trkpt lat="49.00526" lon="2.05424">
        <ele>32</ele>
        <time>2018-08-08T17:42:54Z</time>
      </trkpt>
      <trkpt lat="49.00523" lon="2.05409">
        <ele>33</ele>
        <time>2018-08-08T17:43:05Z</time>
      </trkpt>
      <trkpt lat="49.00518" lon="2.05397">
        <ele>34</ele>
        <time>2018-08-08T17:43:17Z</time>
      </trkpt>
      <trkpt lat="49.00514" lon="2.05384">
        <ele>34</ele>
        <time>2018-08-08T17:43:26Z</time>
      </trkpt>
      <trkpt lat="49.00507" lon="2.05375">
        <ele>35</ele>
        <time>2018-08-08T17:43:33Z</time>
      </trkpt>
      <trkpt lat="49.005" lon="2.05364">
        <ele>36</ele>
        <time>2018-08-08T17:43:41Z</time>
      </trkpt>
      <trkpt lat="49.00496" lon="2.0535">
        <ele>38</ele>
        <time>2018-08-08T17:43:51Z</time>
      </trkpt>
      <trkpt lat="49.00493" lon="2.05336">
        <ele>39</ele>
        <time>2018-08-08T17:44:00Z</time>
      </trkpt>
      <trkpt lat="49.0049" lon="2.05322">
        <ele>41</ele>
        <time>2018-08-08T17:44:10Z</time>
      </trkpt>
      <trkpt lat="49.0049" lon="2.05307">
        <ele>42</ele>
        <time>2018-08-08T17:44:21Z</time>
      </trkpt>
      <trkpt lat="49.00485" lon="2.05294">
        <ele>42</ele>
        <time>2018-08-08T17:44:30Z</time>
      </trkpt>
      <trkpt lat="49.0048" lon="2.05282">
        <ele>43</ele>
        <time>2018-08-08T17:44:39Z</time>
      </trkpt>
      <trkpt lat="49.00473" lon="2.05273">
        <ele>44</ele>
        <time>2018-08-08T17:44:47Z</time>
      </trkpt>
      <trkpt lat="49.00469" lon="2.0526">
        <ele>45</ele>
        <time>2018-08-08T17:44:56Z</time>
      </trkpt>
      <trkpt lat="49.00464" lon="2.05247">
        <ele>46</ele>
        <time>2018-08-08T17:45:05Z</time>
      </trkpt>
      <trkpt lat="49.00461" lon="2.05233">
        <ele>48</ele>
        <time>2018-08-08T17:45:14Z</time>
      </trkpt>
      <trkpt lat="49.00457" lon="2.05219">
        <ele>49</ele>
        <time>2018-08-08T17:45:23Z</time>
      </trkpt>
      <trkpt lat="49.00453" lon="2.05206">
        <ele>50</ele>
        <time>2018-08-08T17:45:32Z</time>
      </trkpt>
      <trkpt lat="49.00449" lon="2.05192">
        <ele>51</ele>
        <time>2018-08-08T17:45:39Z</time>
      </trkpt>
      <trkpt lat="49.00444" lon="2.05179">
        <ele>52</ele>
        <time>2018-08-08T17:45:47Z</time>
      </trkpt>
      <trkpt lat="49.00438" lon="2.05167">
        <ele>53</ele>
        <time>2018-08-08T17:45:56Z</time>
      </trkpt>
      <trkpt lat="49.00435" lon="2.05154">
        <ele>54</ele>
        <time>2018-08-08T17:46:05Z</time>
      </trkpt>
      <trkpt lat="49.00431" lon="2.0514">
        <ele>55</ele>
        <time>2018-08-08T17:46:13Z</time>
      </trkpt>
      <trkpt lat="49.00427" lon="2.05127">
        <ele>56</ele>
        <time>2018-08-08T17:46:21Z</time>
      </trkpt>
      <trkpt lat="49.00423" lon="2.05114">
        <ele>57</ele>
        <time>2018-08-08T17:46:29Z</time>
      </trkpt>
      <trkpt lat="49.00418" lon="2.051">
        <ele>58</ele>
        <time>2018-08-08T17:46:37Z</time>
      </trkpt>
      <trkpt lat="49.00414" lon="2.05086">
        <ele>59</ele>
        <time>2018-08-08T17:46:46Z</time>
      </trkpt>
      <trkpt lat="49.0041" lon="2.05072">
        <ele>60</ele>
        <time>2018-08-08T17:46:54Z</time>
      </trkpt>
      <trkpt lat="49.00408" lon="2.05058">
        <ele>60</ele>
        <time>2018-08-08T17:47:02Z</time>
      </trkpt>
      <trkpt lat="49.00404" lon="2.05044">
        <ele>61</ele>
        <time>2018-08-08T17:47:10Z</time>
      </trkpt>
      <trkpt lat="49.00401" lon="2.05031">
        <ele>61</ele>
        <time>2018-08-08T17:47:18Z</time>
      </trkpt>
      <trkpt lat="49.00396" lon="2.05018">
        <ele>62</ele>
        <time>2018-08-08T17:47:27Z</time>
      </trkpt>
      <trkpt lat="49.00392" lon="2.05006">
        <ele>62</ele>
        <time>2018-08-08T17:47:35Z</time>
      </trkpt>
      <trkpt lat="49.00388" lon="2.04992">
        <ele>63</ele>
        <time>2018-08-08T17:47:43Z</time>
      </trkpt>
      <trkpt lat="49.00385" lon="2.04979">
        <ele>64</ele>
        <time>2018-08-08T17:47:51Z</time>
      </trkpt>
      <trkpt lat="49.0038" lon="2.04965">
        <ele>65</ele>
        <time>2018-08-08T17:47:59Z</time>
      </trkpt>
      <trkpt lat="49.00377" lon="2.04951">
        <ele>66</ele>
        <time>2018-08-08T17:48:08Z</time>
      </trkpt>
      <trkpt lat="49.00373" lon="2.04938">
        <ele>66</ele>
        <time>2018-08-08T17:48:16Z</time>
      </trkpt>
      <trkpt lat="49.0037" lon="2.04925">
        <ele>66</ele>
        <time>2018-08-08T17:48:25Z</time>
      </trkpt>
      <trkpt lat="49.00369" lon="2.0491">
        <ele>66</ele>
        <time>2018-08-08T17:48:34Z</time>
      </trkpt>
      <trkpt lat="49.00368" lon="2.04896">
        <ele>66</ele>
        <time>2018-08-08T17:48:42Z</time>
      </trkpt>
      <trkpt lat="49.00369" lon="2.04881">
        <ele>67</ele>
        <time>2018-08-08T17:48:51Z</time>
      </trkpt>
      <trkpt lat="49.00377" lon="2.04872">
        <ele>67</ele>
        <time>2018-08-08T17:48:59Z</time>
      </trkpt>
      <trkpt lat="49.00385" lon="2.04862">
        <ele>67</ele>
        <time>2018-08-08T17:49:07Z</time>
      </trkpt>
      <trkpt lat="49.00392" lon="2.04854">
        <ele>67</ele>
        <time>2018-08-08T17:49:15Z</time>
      </trkpt>
      <trkpt lat="49.004" lon="2.04846">
        <ele>66</ele>
        <time>2018-08-08T17:49:23Z</time>
      </trkpt>
      <trkpt lat="49.00408" lon="2.04838">
        <ele>66</ele>
        <time>2018-08-08T17:49:31Z</time>
      </trkpt>
      <trkpt lat="49.00416" lon="2.0483">
        <ele>65</ele>
        <time>2018-08-08T17:49:38Z</time>
      </trkpt>
      <trkpt lat="49.00424" lon="2.04821">
        <ele>65</ele>
        <time>2018-08-08T17:49:45Z</time>
      </trkpt>
      <trkpt lat="49.00431" lon="2.04814">
        <ele>64</ele>
        <time>2018-08-08T17:49:52Z</time>
      </trkpt>
      <trkpt lat="49.0044" lon="2.04808">
        <ele>64</ele>
        <time>2018-08-08T17:50:00Z</time>
      </trkpt>
      <trkpt lat="49.00448" lon="2.04801">
        <ele>63</ele>
        <time>2018-08-08T17:50:08Z</time>
      </trkpt>
      <trkpt lat="49.00453" lon="2.04788">
        <ele>63</ele>
        <time>2018-08-08T17:50:16Z</time>
      </trkpt>
      <trkpt lat="49.0045" lon="2.04775">
        <ele>62</ele>
        <time>2018-08-08T17:50:23Z</time>
      </trkpt>
      <trkpt lat="49.00446" lon="2.04762">
        <ele>62</ele>
        <time>2018-08-08T17:50:31Z</time>
      </trkpt>
      <trkpt lat="49.00443" lon="2.04749">
        <ele>61</ele>
        <time>2018-08-08T17:50:39Z</time>
      </trkpt>
      <trkpt lat="49.00439" lon="2.04736">
        <ele>61</ele>
        <time>2018-08-08T17:50:47Z</time>
      </trkpt>
      <trkpt lat="49.00435" lon="2.04724">
        <ele>61</ele>
        <time>2018-08-08T17:50:54Z</time>
      </trkpt>
      <trkpt lat="49.00428" lon="2.04713">
        <ele>61</ele>
        <time>2018-08-08T17:51:01Z</time>
      </trkpt>
      <trkpt lat="49.00422" lon="2.04702">
        <ele>61</ele>
        <time>2018-08-08T17:51:08Z</time>
      </trkpt>
      <trkpt lat="49.00416" lon="2.04691">
        <ele>61</ele>
        <time>2018-08-08T17:51:16Z</time>
      </trkpt>
      <trkpt lat="49.00409" lon="2.04682">
        <ele>61</ele>
        <time>2018-08-08T17:51:23Z</time>
      </trkpt>
      <trkpt lat="49.00402" lon="2.04673">
        <ele>60</ele>
        <time>2018-08-08T17:51:30Z</time>
      </trkpt>
      <trkpt lat="49.00394" lon="2.04664">
        <ele>60</ele>
        <time>2018-08-08T17:51:38Z</time>
      </trkpt>
      <trkpt lat="49.00387" lon="2.04654">
        <ele>60</ele>
        <time>2018-08-08T17:51:46Z</time>
      </trkpt>
      <trkpt lat="49.00379" lon="2.04644">
        <ele>60</ele>
        <time>2018-08-08T17:51:54Z</time>
      </trkpt>
      <trkpt lat="49.00372" lon="2.04635">
        <ele>59</ele>
        <time>2018-08-08T17:52:02Z</time>
      </trkpt>
      <trkpt lat="49.00366" lon="2.04624">
        <ele>59</ele>
        <time>2018-08-08T17:52:10Z</time>
      </trkpt>
      <trkpt lat="49.00363" lon="2.0461">
        <ele>59</ele>
        <time>2018-08-08T17:52:18Z</time>
      </trkpt>
      <trkpt lat="49.00366" lon="2.04596">
        <ele>59</ele>
        <time>2018-08-08T17:52:26Z</time>
      </trkpt>
      <trkpt lat="49.0037" lon="2.04581">
        <ele>59</ele>
        <time>2018-08-08T17:52:34Z</time>
      </trkpt>
      <trkpt lat="49.00371" lon="2.04566">
        <ele>59</ele>
        <time>2018-08-08T17:52:43Z</time>
      </trkpt>
      <trkpt lat="49.00373" lon="2.04551">
        <ele>60</ele>
        <time>2018-08-08T17:52:51Z</time>
      </trkpt>
      <trkpt lat="49.00374" lon="2.04537">
        <ele>60</ele>
        <time>2018-08-08T17:52:59Z</time>
      </trkpt>
      <trkpt lat="49.00377" lon="2.04522">
        <ele>61</ele>
        <time>2018-08-08T17:53:07Z</time>
      </trkpt>
      <trkpt lat="49.00378" lon="2.04508">
        <ele>61</ele>
        <time>2018-08-08T17:53:15Z</time>
      </trkpt>
      <trkpt lat="49.0038" lon="2.04494">
        <ele>62</ele>
        <time>2018-08-08T17:53:22Z</time>
      </trkpt>
      <trkpt lat="49.00384" lon="2.04481">
        <ele>63</ele>
        <time>2018-08-08T17:53:30Z</time>
      </trkpt>
      <trkpt lat="49.00386" lon="2.04467">
        <ele>63</ele>
        <time>2018-08-08T17:53:38Z</time>
      </trkpt>
      <trkpt lat="49.00387" lon="2.04451">
        <ele>64</ele>
        <time>2018-08-08T17:53:46Z</time>
      </trkpt>
      <trkpt lat="49.00388" lon="2.04437">
        <ele>65</ele>
        <time>2018-08-08T17:53:54Z</time>
      </trkpt>
      <trkpt lat="49.0039" lon="2.04421">
        <ele>66</ele>
        <time>2018-08-08T17:54:02Z</time>
      </trkpt>
      <trkpt lat="49.0039" lon="2.04407">
        <ele>66</ele>
        <time>2018-08-08T17:54:09Z</time>
      </trkpt>
      <trkpt lat="49.00391" lon="2.04393">
        <ele>66</ele>
        <time>2018-08-08T17:54:17Z</time>
      </trkpt>
      <trkpt lat="49.00391" lon="2.04377">
        <ele>67</ele>
        <time>2018-08-08T17:54:25Z</time>
      </trkpt>
      <trkpt lat="49.00391" lon="2.04362">
        <ele>67</ele>
        <time>2018-08-08T17:54:33Z</time>
      </trkpt>
      <trkpt lat="49.00393" lon="2.04348">
        <ele>67</ele>
        <time>2018-08-08T17:54:40Z</time>
      </trkpt>
      <trkpt lat="49.00396" lon="2.04335">
        <ele>67</ele>
        <time>2018-08-08T17:54:48Z</time>
      </trkpt>
      <trkpt lat="49.00396" lon="2.04321">
        <ele>67</ele>
        <time>2018-08-08T17:54:55Z</time>
      </trkpt>
      <trkpt lat="49.00397" lon="2.04307">
        <ele>68</ele>
        <time>2018-08-08T17:55:02Z</time>
      </trkpt>
      <trkpt lat="49.004" lon="2.04293">
        <ele>68</ele>
        <time>2018-08-08T17:55:09Z</time>
      </trkpt>
      <trkpt lat="49.00402" lon="2.04279">
        <ele>68</ele>
        <time>2018-08-08T17:55:16Z</time>
      </trkpt>
      <trkpt lat="49.00403" lon="2.04264">
        <ele>68</ele>
        <time>2018-08-08T17:55:23Z</time>
      </trkpt>
      <trkpt lat="49.00404" lon="2.04249">
        <ele>68</ele>
        <time>2018-08-08T17:55:30Z</time>
      </trkpt>
      <trkpt lat="49.00406" lon="2.04235">
        <ele>68</ele>
        <time>2018-08-08T17:55:37Z</time>
      </trkpt>
      <trkpt lat="49.00408" lon="2.0422">
        <ele>69</ele>
        <time>2018-08-08T17:55:45Z</time>
      </trkpt>
      <trkpt lat="49.00409" lon="2.04206">
        <ele>69</ele>
        <time>2018-08-08T17:55:52Z</time>
      </trkpt>
      <trkpt lat="49.00411" lon="2.04192">
        <ele>69</ele>
        <time>2018-08-08T17:55:59Z</time>
      </trkpt>
      <trkpt lat="49.00413" lon="2.04177">
        <ele>69</ele>
        <time>2018-08-08T17:56:06Z</time>
      </trkpt>
      <trkpt lat="49.00415" lon="2.04162">
        <ele>69</ele>
        <time>2018-08-08T17:56:14Z</time>
      </trkpt>
      <trkpt lat="49.00418" lon="2.04149">
        <ele>69</ele>
        <time>2018-08-08T17:56:21Z</time>
      </trkpt>
      <trkpt lat="49.0042" lon="2.04134">
        <ele>70</ele>
        <time>2018-08-08T17:56:28Z</time>
      </trkpt>
      <trkpt lat="49.00422" lon="2.0412">
        <ele>70</ele>
        <time>2018-08-08T17:56:35Z</time>
      </trkpt>
      <trkpt lat="49.00424" lon="2.04105">
        <ele>70</ele>
        <time>2018-08-08T17:56:42Z</time>
      </trkpt>
      <trkpt lat="49.00426" lon="2.04092">
        <ele>70</ele>
        <time>2018-08-08T17:56:49Z</time>
      </trkpt>
      <trkpt lat="49.00427" lon="2.04077">
        <ele>70</ele>
        <time>2018-08-08T17:56:56Z</time>
      </trkpt>
      <trkpt lat="49.00428" lon="2.04063">
        <ele>70</ele>
        <time>2018-08-08T17:57:03Z</time>
      </trkpt>
      <trkpt lat="49.0043" lon="2.04049">
        <ele>70</ele>
        <time>2018-08-08T17:57:11Z</time>
      </trkpt>
      <trkpt lat="49.00433" lon="2.04035">
        <ele>71</ele>
        <time>2018-08-08T17:57:18Z</time>
      </trkpt>
      <trkpt lat="49.00435" lon="2.04021">
        <ele>70</ele>
        <time>2018-08-08T17:57:25Z</time>
      </trkpt>
      <trkpt lat="49.00438" lon="2.04007">
        <ele>70</ele>
        <time>2018-08-08T17:57:32Z</time>
      </trkpt>
      <trkpt lat="49.00439" lon="2.03993">
        <ele>70</ele>
        <time>2018-08-08T17:57:39Z</time>
      </trkpt>
      <trkpt lat="49.00441" lon="2.03978">
        <ele>70</ele>
        <time>2018-08-08T17:57:46Z</time>
      </trkpt>
      <trkpt lat="49.00443" lon="2.03963">
        <ele>71</ele>
        <time>2018-08-08T17:57:54Z</time>
      </trkpt>
      <trkpt lat="49.00445" lon="2.03948">
        <ele>71</ele>
        <time>2018-08-08T17:58:02Z</time>
      </trkpt>
      <trkpt lat="49.00448" lon="2.03933">
        <ele>71</ele>
        <time>2018-08-08T17:58:10Z</time>
      </trkpt>
      <trkpt lat="49.0045" lon="2.03918">
        <ele>70</ele>
        <time>2018-08-08T17:58:18Z</time>
      </trkpt>
      <trkpt lat="49.00451" lon="2.03903">
        <ele>70</ele>
        <time>2018-08-08T17:58:25Z</time>
      </trkpt>
      <trkpt lat="49.00453" lon="2.03889">
        <ele>71</ele>
        <time>2018-08-08T17:58:32Z</time>
      </trkpt>
      <trkpt lat="49.00454" lon="2.03875">
        <ele>71</ele>
        <time>2018-08-08T17:58:39Z</time>
      </trkpt>
      <trkpt lat="49.00455" lon="2.0386">
        <ele>71</ele>
        <time>2018-08-08T17:58:46Z</time>
      </trkpt>
      <trkpt lat="49.00456" lon="2.03846">
        <ele>72</ele>
        <time>2018-08-08T17:58:54Z</time>
      </trkpt>
      <trkpt lat="49.00459" lon="2.03832">
        <ele>72</ele>
        <time>2018-08-08T17:59:01Z</time>
      </trkpt>
      <trkpt lat="49.00461" lon="2.03819">
        <ele>72</ele>
        <time>2018-08-08T17:59:08Z</time>
      </trkpt>
      <trkpt lat="49.00463" lon="2.03805">
        <ele>72</ele>
        <time>2018-08-08T17:59:15Z</time>
      </trkpt>
      <trkpt lat="49.00465" lon="2.03791">
        <ele>72</ele>
        <time>2018-08-08T17:59:22Z</time>
      </trkpt>
      <trkpt lat="49.00467" lon="2.03776">
        <ele>73</ele>
        <time>2018-08-08T17:59:30Z</time>
      </trkpt>
      <trkpt lat="49.00469" lon="2.03761">
        <ele>73</ele>
        <time>2018-08-08T17:59:38Z</time>
      </trkpt>
      <trkpt lat="49.00471" lon="2.03747">
        <ele>73</ele>
        <time>2018-08-08T17:59:45Z</time>
      </trkpt>
      <trkpt lat="49.00473" lon="2.03732">
        <ele>73</ele>
        <time>2018-08-08T17:59:54Z</time>
      </trkpt>
      <trkpt lat="49.00475" lon="2.03717">
        <ele>74</ele>
        <time>2018-08-08T18:00:01Z</time>
      </trkpt>
      <trkpt lat="49.00477" lon="2.03701">
        <ele>74</ele>
        <time>2018-08-08T18:00:09Z</time>
      </trkpt>
      <trkpt lat="49.00479" lon="2.03687">
        <ele>74</ele>
        <time>2018-08-08T18:00:16Z</time>
      </trkpt>
      <trkpt lat="49.00481" lon="2.03672">
        <ele>75</ele>
        <time>2018-08-08T18:00:24Z</time>
      </trkpt>
      <trkpt lat="49.00484" lon="2.03657">
        <ele>75</ele>
        <time>2018-08-08T18:00:31Z</time>
      </trkpt>
      <trkpt lat="49.00486" lon="2.03643">
        <ele>76</ele>
        <time>2018-08-08T18:00:38Z</time>
      </trkpt>
      <trkpt lat="49.0049" lon="2.03629">
        <ele>77</ele>
        <time>2018-08-08T18:00:46Z</time>
      </trkpt>
      <trkpt lat="49.00495" lon="2.03617">
        <ele>77</ele>
        <time>2018-08-08T18:00:54Z</time>
      </trkpt>
      <trkpt lat="49.00501" lon="2.03605">
        <ele>78</ele>
        <time>2018-08-08T18:01:01Z</time>
      </trkpt>
      <trkpt lat="49.00507" lon="2.03596">
        <ele>78</ele>
        <time>2018-08-08T18:01:08Z</time>
      </trkpt>
      <trkpt lat="49.00515" lon="2.03586">
        <ele>78</ele>
        <time>2018-08-08T18:01:16Z</time>
      </trkpt>
      <trkpt lat="49.00521" lon="2.03575">
        <ele>78</ele>
        <time>2018-08-08T18:01:23Z</time>
      </trkpt>
      <trkpt lat="49.00525" lon="2.03561">
        <ele>79</ele>
        <time>2018-08-08T18:01:30Z</time>
      </trkpt>
      <trkpt lat="49.00528" lon="2.03547">
        <ele>79</ele>
        <time>2018-08-08T18:01:37Z</time>
      </trkpt>
      <trkpt lat="49.00532" lon="2.03534">
        <ele>80</ele>
        <time>2018-08-08T18:01:45Z</time>
      </trkpt>
      <trkpt lat="49.00537" lon="2.03522">
        <ele>80</ele>
        <time>2018-08-08T18:01:52Z</time>
      </trkpt>
      <trkpt lat="49.00542" lon="2.03508">
        <ele>80</ele>
        <time>2018-08-08T18:02:00Z</time>
      </trkpt>
      <trkpt lat="49.00546" lon="2.03495">
        <ele>80</ele>
        <time>2018-08-08T18:02:08Z</time>
      </trkpt>
      <trkpt lat="49.0055" lon="2.0348">
        <ele>81</ele>
        <time>2018-08-08T18:02:16Z</time>
      </trkpt>
      <trkpt lat="49.00548" lon="2.03465">
        <ele>81</ele>
        <time>2018-08-08T18:02:22Z</time>
      </trkpt>
      <trkpt lat="49.00544" lon="2.03452">
        <ele>81</ele>
        <time>2018-08-08T18:02:28Z</time>
      </trkpt>
      <trkpt lat="49.0054" lon="2.03439">
        <ele>81</ele>
        <time>2018-08-08T18:02:35Z</time>
      </trkpt>
      <trkpt lat="49.00536" lon="2.03425">
        <ele>82</ele>
        <time>2018-08-08T18:02:43Z</time>
      </trkpt>
      <trkpt lat="49.00531" lon="2.03412">
        <ele>82</ele>
        <time>2018-08-08T18:02:50Z</time>
      </trkpt>
      <trkpt lat="49.00527" lon="2.03399">
        <ele>83</ele>
        <time>2018-08-08T18:02:57Z</time>
      </trkpt>
      <trkpt lat="49.00523" lon="2.03386">
        <ele>83</ele>
        <time>2018-08-08T18:03:04Z</time>
      </trkpt>
      <trkpt lat="49.0052" lon="2.03373">
        <ele>84</ele>
        <time>2018-08-08T18:03:11Z</time>
      </trkpt>
      <trkpt lat="49.00517" lon="2.03358">
        <ele>84</ele>
        <time>2018-08-08T18:03:19Z</time>
      </trkpt>
      <trkpt lat="49.00514" lon="2.03344">
        <ele>84</ele>
        <time>2018-08-08T18:03:27Z</time>
      </trkpt>
      <trkpt lat="49.00511" lon="2.0333">
        <ele>84</ele>
        <time>2018-08-08T18:03:34Z</time>
      </trkpt>
      <trkpt lat="49.00507" lon="2.03317">
        <ele>84</ele>
        <time>2018-08-08T18:03:41Z</time>
      </trkpt>
      <trkpt lat="49.00503" lon="2.03303">
        <ele>83</ele>
        <time>2018-08-08T18:03:49Z</time>
      </trkpt>
      <trkpt lat="49.00499" lon="2.03289">
        <ele>83</ele>
        <time>2018-08-08T18:03:57Z</time>
      </trkpt>
      <trkpt lat="49.00496" lon="2.03275">
        <ele>83</ele>
        <time>2018-08-08T18:04:05Z</time>
      </trkpt>
      <trkpt lat="49.00493" lon="2.03262">
        <ele>83</ele>
        <time>2018-08-08T18:04:13Z</time>
      </trkpt>
      <trkpt lat="49.00489" lon="2.03248">
        <ele>83</ele>
        <time>2018-08-08T18:04:21Z</time>
      </trkpt>
      <trkpt lat="49.00486" lon="2.03233">
        <ele>83</ele>
        <time>2018-08-08T18:04:29Z</time>
      </trkpt>
      <trkpt lat="49.00483" lon="2.03219">
        <ele>84</ele>
        <time>2018-08-08T18:04:36Z</time>
      </trkpt>
      <trkpt lat="49.0048" lon="2.03206">
        <ele>84</ele>
        <time>2018-08-08T18:04:43Z</time>
      </trkpt>
      <trkpt lat="49.00476" lon="2.03193">
        <ele>84</ele>
        <time>2018-08-08T18:04:50Z</time>
      </trkpt>
      <trkpt lat="49.00473" lon="2.03179">
        <ele>84</ele>
        <time>2018-08-08T18:04:58Z</time>
      </trkpt>
      <trkpt lat="49.0047" lon="2.03164">
        <ele>85</ele>
        <time>2018-08-08T18:05:06Z</time>
      </trkpt>
      <trkpt lat="49.00466" lon="2.03149">
        <ele>86</ele>
        <time>2018-08-08T18:05:13Z</time>
      </trkpt>
      <trkpt lat="49.00464" lon="2.03136">
        <ele>87</ele>
        <time>2018-08-08T18:05:20Z</time>
      </trkpt>
      <trkpt lat="49.00461" lon="2.03121">
        <ele>87</ele>
        <time>2018-08-08T18:05:28Z</time>
      </trkpt>
      <trkpt lat="49.00459" lon="2.03107">
        <ele>87</ele>
        <time>2018-08-08T18:05:35Z</time>
      </trkpt>
      <trkpt lat="49.00458" lon="2.03092">
        <ele>87</ele>
        <time>2018-08-08T18:05:43Z</time>
      </trkpt>
      <trkpt lat="49.00456" lon="2.03078">
        <ele>88</ele>
        <time>2018-08-08T18:05:51Z</time>
      </trkpt>
      <trkpt lat="49.00456" lon="2.03063">
        <ele>88</ele>
        <time>2018-08-08T18:05:59Z</time>
      </trkpt>
      <trkpt lat="49.00454" lon="2.03048">
        <ele>89</ele>
        <time>2018-08-08T18:06:07Z</time>
      </trkpt>
      <trkpt lat="49.00453" lon="2.03034">
        <ele>89</ele>
        <time>2018-08-08T18:06:15Z</time>
      </trkpt>
      <trkpt lat="49.00451" lon="2.0302">
        <ele>89</ele>
        <time>2018-08-08T18:06:22Z</time>
      </trkpt>
      <trkpt lat="49.00449" lon="2.03006">
        <ele>89</ele>
        <time>2018-08-08T18:06:29Z</time>
      </trkpt>
      <trkpt lat="49.00447" lon="2.02992">
        <ele>88</ele>
        <time>2018-08-08T18:06:37Z</time>
      </trkpt>
      <trkpt lat="49.00445" lon="2.02978">
        <ele>88</ele>
        <time>2018-08-08T18:06:44Z</time>
      </trkpt>
      <trkpt lat="49.0044" lon="2.02966">
        <ele>88</ele>
        <time>2018-08-08T18:06:51Z</time>
      </trkpt>
      <trkpt lat="49.00436" lon="2.02952">
        <ele>87</ele>
        <time>2018-08-08T18:06:59Z</time>
      </trkpt>
      <trkpt lat="49.00432" lon="2.02939">
        <ele>87</ele>
        <time>2018-08-08T18:07:06Z</time>
      </trkpt>
      <trkpt lat="49.00428" lon="2.02926">
        <ele>87</ele>
        <time>2018-08-08T18:07:14Z</time>
      </trkpt>
      <trkpt lat="49.00423" lon="2.02914">
        <ele>88</ele>
        <time>2018-08-08T18:07:21Z</time>
      </trkpt>
      <trkpt lat="49.00418" lon="2.02902">
        <ele>88</ele>
        <time>2018-08-08T18:07:28Z</time>
      </trkpt>
      <trkpt lat="49.00412" lon="2.02891">
        <ele>89</ele>
        <time>2018-08-08T18:07:35Z</time>
      </trkpt>
      <trkpt lat="49.00407" lon="2.02878">
        <ele>90</ele>
        <time>2018-08-08T18:07:42Z</time>
      </trkpt>
      <trkpt lat="49.00402" lon="2.02865">
        <ele>90</ele>
        <time>2018-08-08T18:07:50Z</time>
      </trkpt>
      <trkpt lat="49.00397" lon="2.02852">
        <ele>91</ele>
        <time>2018-08-08T18:07:58Z</time>
      </trkpt>
      <trkpt lat="49.00392" lon="2.0284">
        <ele>91</ele>
        <time>2018-08-08T18:08:05Z</time>
      </trkpt>
      <trkpt lat="49.00388" lon="2.02828">
        <ele>91</ele>
        <time>2018-08-08T18:08:12Z</time>
      </trkpt>
      <trkpt lat="49.00383" lon="2.02815">
        <ele>91</ele>
        <time>2018-08-08T18:08:19Z</time>
      </trkpt>
      <trkpt lat="49.00379" lon="2.02802">
        <ele>91</ele>
        <time>2018-08-08T18:08:26Z</time>
      </trkpt>
      <trkpt lat="49.00374" lon="2.0279">
        <ele>92</ele>
        <time>2018-08-08T18:08:33Z</time>
      </trkpt>
      <trkpt lat="49.0037" lon="2.02777">
        <ele>92</ele>
        <time>2018-08-08T18:08:41Z</time>
      </trkpt>
      <trkpt lat="49.00365" lon="2.02763">
        <ele>92</ele>
        <time>2018-08-08T18:08:49Z</time>
      </trkpt>
      <trkpt lat="49.0036" lon="2.0275">
        <ele>93</ele>
        <time>2018-08-08T18:08:58Z</time>
      </trkpt>
      <trkpt lat="49.00357" lon="2.02736">
        <ele>94</ele>
        <time>2018-08-08T18:09:07Z</time>
      </trkpt>
      <trkpt lat="49.00352" lon="2.02723">
        <ele>94</ele>
        <time>2018-08-08T18:09:14Z</time>
      </trkpt>
      <trkpt lat="49.00346" lon="2.0271">
        <ele>95</ele>
        <time>2018-08-08T18:09:21Z</time>
      </trkpt>
      <trkpt lat="49.00341" lon="2.02698">
        <ele>96</ele>
        <time>2018-08-08T18:09:28Z</time>
      </trkpt>
      <trkpt lat="49.00334" lon="2.02689">
        <ele>96</ele>
        <time>2018-08-08T18:09:35Z</time>
      </trkpt>
      <trkpt lat="49.00327" lon="2.02679">
        <ele>97</ele>
        <time>2018-08-08T18:09:42Z</time>
      </trkpt>
      <trkpt lat="49.00321" lon="2.02669">
        <ele>98</ele>
        <time>2018-08-08T18:09:50Z</time>
      </trkpt>
      <trkpt lat="49.00314" lon="2.0266">
        <ele>99</ele>
        <time>2018-08-08T18:09:58Z</time>
      </trkpt>
      <trkpt lat="49.00306" lon="2.02651">
        <ele>99</ele>
        <time>2018-08-08T18:10:04Z</time>
      </trkpt>
      <trkpt lat="49.00299" lon="2.02641">
        <ele>99</ele>
        <time>2018-08-08T18:10:12Z</time>
      </trkpt>
      <trkpt lat="49.00291" lon="2.02633">
        <ele>99</ele>
        <time>2018-08-08T18:10:19Z</time>
      </trkpt>
      <trkpt lat="49.00283" lon="2.02625">
        <ele>100</ele>
        <time>2018-08-08T18:10:26Z</time>
      </trkpt>
      <trkpt lat="49.00276" lon="2.02617">
        <ele>100</ele>
        <time>2018-08-08T18:10:33Z</time>
      </trkpt>
      <trkpt lat="49.00268" lon="2.02611">
        <ele>100</ele>
        <time>2018-08-08T18:10:40Z</time>
      </trkpt>
      <trkpt lat="49.00259" lon="2.02605">
        <ele>101</ele>
        <time>2018-08-08T18:10:48Z</time>
      </trkpt>
      <trkpt lat="49.0025" lon="2.02599">
        <ele>103</ele>
        <time>2018-08-08T18:10:55Z</time>
      </trkpt>
      <trkpt lat="49.00242" lon="2.02591">
        <ele>104</ele>
        <time>2018-08-08T18:11:03Z</time>
      </trkpt>
      <trkpt lat="49.00233" lon="2.02586">
        <ele>104</ele>
        <time>2018-08-08T18:11:10Z</time>
      </trkpt>
      <trkpt lat="49.00225" lon="2.02579">
        <ele>105</ele>
        <time>2018-08-08T18:11:19Z</time>
      </trkpt>
      <trkpt lat="49.00217" lon="2.0257">
        <ele>106</ele>
        <time>2018-08-08T18:11:27Z</time>
      </trkpt>
      <trkpt lat="49.00209" lon="2.02563">
        <ele>106</ele>
        <time>2018-08-08T18:11:34Z</time>
      </trkpt>
      <trkpt lat="49.002" lon="2.02556">
        <ele>107</ele>
        <time>2018-08-08T18:11:41Z</time>
      </trkpt>
      <trkpt lat="49.0019" lon="2.02549">
        <ele>108</ele>
        <time>2018-08-08T18:11:48Z</time>
      </trkpt>
      <trkpt lat="49.00183" lon="2.0254">
        <ele>109</ele>
        <time>2018-08-08T18:11:55Z</time>
      </trkpt>
      <trkpt lat="49.00177" lon="2.02529">
        <ele>109</ele>
        <time>2018-08-08T18:12:02Z</time>
      </trkpt>
      <trkpt lat="49.00172" lon="2.02518">
        <ele>109</ele>
        <time>2018-08-08T18:12:09Z</time>
      </trkpt>
      <trkpt lat="49.00166" lon="2.02505">
        <ele>110</ele>
        <time>2018-08-08T18:12:16Z</time>
      </trkpt>
      <trkpt lat="49.00161" lon="2.02493">
        <ele>110</ele>
        <time>2018-08-08T18:12:23Z</time>
      </trkpt>
      <trkpt lat="49.00157" lon="2.02481">
        <ele>111</ele>
        <time>2018-08-08T18:12:30Z</time>
      </trkpt>
      <trkpt lat="49.00153" lon="2.02468">
        <ele>112</ele>
        <time>2018-08-08T18:12:38Z</time>
      </trkpt>
      <trkpt lat="49.0015" lon="2.02453">
        <ele>113</ele>
        <time>2018-08-08T18:12:48Z</time>
      </trkpt>
      <trkpt lat="49.00148" lon="2.0244">
        <ele>113</ele>
        <time>2018-08-08T18:12:58Z</time>
      </trkpt>
      <trkpt lat="49.00148" lon="2.02424">
        <ele>113</ele>
        <time>2018-08-08T18:13:06Z</time>
      </trkpt>
      <trkpt lat="49.00146" lon="2.0241">
        <ele>113</ele>
        <time>2018-08-08T18:13:15Z</time>
      </trkpt>
      <trkpt lat="49.0015" lon="2.02396">
        <ele>113</ele>
        <time>2018-08-08T18:13:21Z</time>
      </trkpt>
      <trkpt lat="49.00152" lon="2.02381">
        <ele>113</ele>
        <time>2018-08-08T18:13:30Z</time>
      </trkpt>
      <trkpt lat="49.0015" lon="2.02368">
        <ele>114</ele>
        <time>2018-08-08T18:13:39Z</time>
      </trkpt>
      <trkpt lat="49.0015" lon="2.02382">
        <ele>121</ele>
        <time>2018-08-08T18:14:19Z</time>
      </trkpt>
      <trkpt lat="49.00152" lon="2.02368">
        <ele>131</ele>
        <time>2018-08-08T18:16:39Z</time>
      </trkpt>
      <trkpt lat="49.00156" lon="2.02355">
        <ele>131</ele>
        <time>2018-08-08T18:16:48Z</time>
      </trkpt>
      <trkpt lat="49.00161" lon="2.02343">
        <ele>131</ele>
        <time>2018-08-08T18:17:01Z</time>
      </trkpt>
      <trkpt lat="49.0017" lon="2.02337">
        <ele>129</ele>
        <time>2018-08-08T18:17:18Z</time>
      </trkpt>
      <trkpt lat="49.00179" lon="2.02335">
        <ele>128</ele>
        <time>2018-08-08T18:17:23Z</time>
      </trkpt>
      <trkpt lat="49.00188" lon="2.02333">
        <ele>127</ele>
        <time>2018-08-08T18:17:28Z</time>
      </trkpt>
      <trkpt lat="49.00197" lon="2.02329">
        <ele>125</ele>
        <time>2018-08-08T18:17:34Z</time>
      </trkpt>
      <trkpt lat="49.00206" lon="2.02325">
        <ele>123</ele>
        <time>2018-08-08T18:17:41Z</time>
      </trkpt>
      <trkpt lat="49.00213" lon="2.02314">
        <ele>120</ele>
        <time>2018-08-08T18:17:52Z</time>
      </trkpt>
      <trkpt lat="49.00219" lon="2.02301">
        <ele>118</ele>
        <time>2018-08-08T18:18:00Z</time>
      </trkpt>
      <trkpt lat="49.00226" lon="2.02292">
        <ele>117</ele>
        <time>2018-08-08T18:18:06Z</time>
      </trkpt>
      <trkpt lat="49.00233" lon="2.02282">
        <ele>116</ele>
        <time>2018-08-08T18:18:12Z</time>
      </trkpt>
      <trkpt lat="49.0024" lon="2.02271">
        <ele>115</ele>
        <time>2018-08-08T18:18:20Z</time>
      </trkpt>
      <trkpt lat="49.00247" lon="2.02262">
        <ele>114</ele>
        <time>2018-08-08T18:18:27Z</time>
      </trkpt>
      <trkpt lat="49.00255" lon="2.02254">
        <ele>114</ele>
        <time>2018-08-08T18:18:34Z</time>
      </trkpt>
      <trkpt lat="49.00263" lon="2.02244">
        <ele>113</ele>
        <time>2018-08-08T18:18:41Z</time>
      </trkpt>
      <trkpt lat="49.0027" lon="2.02235">
        <ele>113</ele>
        <time>2018-08-08T18:18:48Z</time>
      </trkpt>
      <trkpt lat="49.00276" lon="2.02226">
        <ele>112</ele>
        <time>2018-08-08T18:18:55Z</time>
      </trkpt>
      <trkpt lat="49.00284" lon="2.02214">
        <ele>112</ele>
        <time>2018-08-08T18:19:03Z</time>
      </trkpt>
      <trkpt lat="49.00291" lon="2.02205">
        <ele>111</ele>
        <time>2018-08-08T18:19:10Z</time>
      </trkpt>
      <trkpt lat="49.00299" lon="2.02196">
        <ele>111</ele>
        <time>2018-08-08T18:19:16Z</time>
      </trkpt>
      <trkpt lat="49.00306" lon="2.02186">
        <ele>110</ele>
        <time>2018-08-08T18:19:23Z</time>
      </trkpt>
      <trkpt lat="49.00313" lon="2.02175">
        <ele>109</ele>
        <time>2018-08-08T18:19:31Z</time>
      </trkpt>
      <trkpt lat="49.00318" lon="2.02165">
        <ele>109</ele>
        <time>2018-08-08T18:19:37Z</time>
      </trkpt>
      <trkpt lat="49.00325" lon="2.02155">
        <ele>109</ele>
        <time>2018-08-08T18:19:44Z</time>
      </trkpt>
      <trkpt lat="49.00332" lon="2.02143">
        <ele>108</ele>
        <time>2018-08-08T18:19:51Z</time>
      </trkpt>
      <trkpt lat="49.00339" lon="2.02132">
        <ele>107</ele>
        <time>2018-08-08T18:19:57Z</time>
      </trkpt>
      <trkpt lat="49.00346" lon="2.0212">
        <ele>107</ele>
        <time>2018-08-08T18:20:03Z</time>
      </trkpt>
      <trkpt lat="49.00351" lon="2.02109">
        <ele>107</ele>
        <time>2018-08-08T18:20:10Z</time>
      </trkpt>
      <trkpt lat="49.00358" lon="2.021">
        <ele>106</ele>
        <time>2018-08-08T18:20:17Z</time>
      </trkpt>
      <trkpt lat="49.00366" lon="2.02091">
        <ele>106</ele>
        <time>2018-08-08T18:20:25Z</time>
      </trkpt>
      <trkpt lat="49.00375" lon="2.02083">
        <ele>106</ele>
        <time>2018-08-08T18:20:32Z</time>
      </trkpt>
      <trkpt lat="49.00383" lon="2.02075">
        <ele>105</ele>
        <time>2018-08-08T18:20:38Z</time>
      </trkpt>
      <trkpt lat="49.00389" lon="2.02065">
        <ele>105</ele>
        <time>2018-08-08T18:20:44Z</time>
      </trkpt>
      <trkpt lat="49.00394" lon="2.02053">
        <ele>105</ele>
        <time>2018-08-08T18:20:50Z</time>
      </trkpt>
      <trkpt lat="49.00401" lon="2.02042">
        <ele>105</ele>
        <time>2018-08-08T18:20:58Z</time>
      </trkpt>
      <trkpt lat="49.00407" lon="2.02032">
        <ele>105</ele>
        <time>2018-08-08T18:21:06Z</time>
      </trkpt>
      <trkpt lat="49.00414" lon="2.02023">
        <ele>105</ele>
        <time>2018-08-08T18:21:13Z</time>
      </trkpt>
      <trkpt lat="49.00421" lon="2.02014">
        <ele>104</ele>
        <time>2018-08-08T18:21:19Z</time>
      </trkpt>
      <trkpt lat="49.00428" lon="2.02002">
        <ele>104</ele>
        <time>2018-08-08T18:21:28Z</time>
      </trkpt>
      <trkpt lat="49.00433" lon="2.01988">
        <ele>103</ele>
        <time>2018-08-08T18:21:35Z</time>
      </trkpt>
      <trkpt lat="49.0044" lon="2.01976">
        <ele>103</ele>
        <time>2018-08-08T18:21:41Z</time>
      </trkpt>
      <trkpt lat="49.00447" lon="2.01967">
        <ele>103</ele>
        <time>2018-08-08T18:21:47Z</time>
      </trkpt>
      <trkpt lat="49.00454" lon="2.01957">
        <ele>103</ele>
        <time>2018-08-08T18:21:55Z</time>
      </trkpt>
      <trkpt lat="49.00461" lon="2.01946">
        <ele>103</ele>
        <time>2018-08-08T18:22:02Z</time>
      </trkpt>
      <trkpt lat="49.00468" lon="2.01934">
        <ele>103</ele>
        <time>2018-08-08T18:22:08Z</time>
      </trkpt>
      <trkpt lat="49.00474" lon="2.01923">
        <ele>103</ele>
        <time>2018-08-08T18:22:16Z</time>
      </trkpt>
      <trkpt lat="49.00481" lon="2.01913">
        <ele>103</ele>
        <time>2018-08-08T18:22:22Z</time>
      </trkpt>
      <trkpt lat="49.00488" lon="2.01903">
        <ele>103</ele>
        <time>2018-08-08T18:22:28Z</time>
      </trkpt>
      <trkpt lat="49.00496" lon="2.01894">
        <ele>103</ele>
        <time>2018-08-08T18:22:34Z</time>
      </trkpt>
      <trkpt lat="49.00504" lon="2.01886">
        <ele>102</ele>
        <time>2018-08-08T18:22:43Z</time>
      </trkpt>
      <trkpt lat="49.00512" lon="2.01876">
        <ele>103</ele>
        <time>2018-08-08T18:22:53Z</time>
      </trkpt>
      <trkpt lat="49.0052" lon="2.01868">
        <ele>103</ele>
        <time>2018-08-08T18:23:00Z</time>
      </trkpt>
      <trkpt lat="49.00528" lon="2.01861">
        <ele>103</ele>
        <time>2018-08-08T18:23:07Z</time>
      </trkpt>
      <trkpt lat="49.00536" lon="2.01855">
        <ele>103</ele>
        <time>2018-08-08T18:23:14Z</time>
      </trkpt>
      <trkpt lat="49.00543" lon="2.01844">
        <ele>103</ele>
        <time>2018-08-08T18:23:22Z</time>
      </trkpt>
      <trkpt lat="49.00551" lon="2.01837">
        <ele>103</ele>
        <time>2018-08-08T18:23:29Z</time>
      </trkpt>
      <trkpt lat="49.00559" lon="2.01829">
        <ele>103</ele>
        <time>2018-08-08T18:23:35Z</time>
      </trkpt>
      <trkpt lat="49.00567" lon="2.01821">
        <ele>103</ele>
        <time>2018-08-08T18:23:41Z</time>
      </trkpt>
      <trkpt lat="49.00575" lon="2.01814">
        <ele>103</ele>
        <time>2018-08-08T18:23:48Z</time>
      </trkpt>
      <trkpt lat="49.00584" lon="2.01809">
        <ele>102</ele>
        <time>2018-08-08T18:23:55Z</time>
      </trkpt>
      <trkpt lat="49.00593" lon="2.01802">
        <ele>102</ele>
        <time>2018-08-08T18:24:02Z</time>
      </trkpt>
      <trkpt lat="49.00601" lon="2.01794">
        <ele>101</ele>
        <time>2018-08-08T18:24:12Z</time>
      </trkpt>
      <trkpt lat="49.0061" lon="2.01789">
        <ele>101</ele>
        <time>2018-08-08T18:24:20Z</time>
      </trkpt>
      <trkpt lat="49.00619" lon="2.01782">
        <ele>101</ele>
        <time>2018-08-08T18:24:26Z</time>
      </trkpt>
      <trkpt lat="49.00627" lon="2.01774">
        <ele>101</ele>
        <time>2018-08-08T18:24:33Z</time>
      </trkpt>
      <trkpt lat="49.00635" lon="2.01765">
        <ele>102</ele>
        <time>2018-08-08T18:24:40Z</time>
      </trkpt>
      <trkpt lat="49.00638" lon="2.01752">
        <ele>103</ele>
        <time>2018-08-08T18:24:46Z</time>
      </trkpt>
      <trkpt lat="49.00638" lon="2.01738">
        <ele>103</ele>
        <time>2018-08-08T18:24:52Z</time>
      </trkpt>
      <trkpt lat="49.00638" lon="2.01724">
        <ele>104</ele>
        <time>2018-08-08T18:25:00Z</time>
      </trkpt>
      <trkpt lat="49.00637" lon="2.01709">
        <ele>105</ele>
        <time>2018-08-08T18:25:08Z</time>
      </trkpt>
      <trkpt lat="49.00635" lon="2.01694">
        <ele>106</ele>
        <time>2018-08-08T18:25:15Z</time>
      </trkpt>
      <trkpt lat="49.00633" lon="2.0168">
        <ele>107</ele>
        <time>2018-08-08T18:25:23Z</time>
      </trkpt>
      <trkpt lat="49.00629" lon="2.01667">
        <ele>109</ele>
        <time>2018-08-08T18:25:31Z</time>
      </trkpt>
      <trkpt lat="49.00625" lon="2.01652">
        <ele>110</ele>
        <time>2018-08-08T18:25:40Z</time>
      </trkpt>
      <trkpt lat="49.00621" lon="2.01639">
        <ele>110</ele>
        <time>2018-08-08T18:25:47Z</time>
      </trkpt>
      <trkpt lat="49.00618" lon="2.01626">
        <ele>111</ele>
        <time>2018-08-08T18:25:54Z</time>
      </trkpt>
      <trkpt lat="49.00622" lon="2.01612">
        <ele>112</ele>
        <time>2018-08-08T18:26:13Z</time>
      </trkpt>
      <trkpt lat="49.00632" lon="2.01607">
        <ele>113</ele>
        <time>2018-08-08T18:26:20Z</time>
      </trkpt>
      <trkpt lat="49.00641" lon="2.01605">
        <ele>114</ele>
        <time>2018-08-08T18:26:28Z</time>
      </trkpt>
      <trkpt lat="49.0065" lon="2.01602">
        <ele>115</ele>
        <time>2018-08-08T18:26:36Z</time>
      </trkpt>
      <trkpt lat="49.00659" lon="2.01596">
        <ele>115</ele>
        <time>2018-08-08T18:26:44Z</time>
      </trkpt>
      <trkpt lat="49.00667" lon="2.0159">
        <ele>115</ele>
        <time>2018-08-08T18:26:51Z</time>
      </trkpt>
      <trkpt lat="49.00676" lon="2.01583">
        <ele>116</ele>
        <time>2018-08-08T18:26:58Z</time>
      </trkpt>
      <trkpt lat="49.00685" lon="2.01579">
        <ele>116</ele>
        <time>2018-08-08T18:27:05Z</time>
      </trkpt>
      <trkpt lat="49.00694" lon="2.01574">
        <ele>116</ele>
        <time>2018-08-08T18:27:15Z</time>
      </trkpt>
      <trkpt lat="49.00701" lon="2.01582">
        <ele>116</ele>
        <time>2018-08-08T18:27:23Z</time>
      </trkpt>
      <trkpt lat="49.00705" lon="2.01595">
        <ele>117</ele>
        <time>2018-08-08T18:27:31Z</time>
      </trkpt>
      <trkpt lat="49.00709" lon="2.01608">
        <ele>118</ele>
        <time>2018-08-08T18:27:40Z</time>
      </trkpt>
      <trkpt lat="49.00712" lon="2.01622">
        <ele>118</ele>
        <time>2018-08-08T18:27:58Z</time>
      </trkpt>
      <trkpt lat="49.00715" lon="2.01635">
        <ele>118</ele>
        <time>2018-08-08T18:28:09Z</time>
      </trkpt>
      <trkpt lat="49.00719" lon="2.01648">
        <ele>117</ele>
        <time>2018-08-08T18:28:21Z</time>
      </trkpt>
      <trkpt lat="49.00729" lon="2.0165">
        <ele>116</ele>
        <time>2018-08-08T18:28:42Z</time>
      </trkpt>
      <trkpt lat="49.00737" lon="2.01646">
        <ele>115</ele>
        <time>2018-08-08T18:29:22Z</time>
      </trkpt>
      <trkpt lat="49.00746" lon="2.0164">
        <ele>114</ele>
        <time>2018-08-08T18:29:32Z</time>
      </trkpt>
      <trkpt lat="49.00755" lon="2.01635">
        <ele>114</ele>
        <time>2018-08-08T18:29:40Z</time>
      </trkpt>
      <trkpt lat="49.00765" lon="2.01632">
        <ele>114</ele>
        <time>2018-08-08T18:29:50Z</time>
      </trkpt>
      <trkpt lat="49.00769" lon="2.01645">
        <ele>113</ele>
        <time>2018-08-08T18:30:02Z</time>
      </trkpt>
      <trkpt lat="49.00773" lon="2.01632">
        <ele>111</ele>
        <time>2018-08-08T18:41:48Z</time>
      </trkpt>
      <trkpt lat="49.00768" lon="2.01644">
        <ele>110</ele>
        <time>2018-08-08T18:49:34Z</time>
      </trkpt>
      <trkpt lat="49.00777" lon="2.01638">
        <ele>101</ele>
        <time>2018-08-08T18:59:53Z</time>
      </trkpt>
      <trkpt lat="49.00787" lon="2.01635">
        <ele>100</ele>
        <time>2018-08-08T19:00:00Z</time>
      </trkpt>
      <trkpt lat="49.00797" lon="2.0163">
        <ele>100</ele>
        <time>2018-08-08T19:00:07Z</time>
      </trkpt>
      <trkpt lat="49.00805" lon="2.01625">
        <ele>100</ele>
        <time>2018-08-08T19:00:15Z</time>
      </trkpt>
      <trkpt lat="49.00813" lon="2.0162">
        <ele>100</ele>
        <time>2018-08-08T19:00:23Z</time>
      </trkpt>
      <trkpt lat="49.00823" lon="2.01614">
        <ele>100</ele>
        <time>2018-08-08T19:00:31Z</time>
      </trkpt>
      <trkpt lat="49.00831" lon="2.01608">
        <ele>100</ele>
        <time>2018-08-08T19:00:41Z</time>
      </trkpt>
      <trkpt lat="49.00838" lon="2.01599">
        <ele>102</ele>
        <time>2018-08-08T19:00:59Z</time>
      </trkpt>
      <trkpt lat="49.00847" lon="2.01595">
        <ele>104</ele>
        <time>2018-08-08T19:01:21Z</time>
      </trkpt>
      <trkpt lat="49.00856" lon="2.01602">
        <ele>104</ele>
        <time>2018-08-08T19:01:29Z</time>
      </trkpt>
      <trkpt lat="49.00864" lon="2.01611">
        <ele>104</ele>
        <time>2018-08-08T19:01:37Z</time>
      </trkpt>
      <trkpt lat="49.0087" lon="2.01623">
        <ele>105</ele>
        <time>2018-08-08T19:01:45Z</time>
      </trkpt>
      <trkpt lat="49.00876" lon="2.01635">
        <ele>105</ele>
        <time>2018-08-08T19:01:56Z</time>
      </trkpt>
      <trkpt lat="49.00882" lon="2.01647">
        <ele>105</ele>
        <time>2018-08-08T19:02:05Z</time>
      </trkpt>
      <trkpt lat="49.00888" lon="2.01658">
        <ele>104</ele>
        <time>2018-08-08T19:02:13Z</time>
      </trkpt>
      <trkpt lat="49.00894" lon="2.01668">
        <ele>104</ele>
        <time>2018-08-08T19:02:23Z</time>
      </trkpt>
      <trkpt lat="49.009" lon="2.01679">
        <ele>104</ele>
        <time>2018-08-08T19:02:30Z</time>
      </trkpt>
      <trkpt lat="49.00907" lon="2.01689">
        <ele>103</ele>
        <time>2018-08-08T19:02:38Z</time>
      </trkpt>
      <trkpt lat="49.00914" lon="2.01699">
        <ele>103</ele>
        <time>2018-08-08T19:02:45Z</time>
      </trkpt>
      <trkpt lat="49.00922" lon="2.01707">
        <ele>103</ele>
        <time>2018-08-08T19:02:52Z</time>
      </trkpt>
      <trkpt lat="49.00929" lon="2.01717">
        <ele>102</ele>
        <time>2018-08-08T19:03:00Z</time>
      </trkpt>
      <trkpt lat="49.00936" lon="2.01725">
        <ele>102</ele>
        <time>2018-08-08T19:03:11Z</time>
      </trkpt>
      <trkpt lat="49.00944" lon="2.01733">
        <ele>102</ele>
        <time>2018-08-08T19:03:18Z</time>
      </trkpt>
      <trkpt lat="49.00954" lon="2.01737">
        <ele>102</ele>
        <time>2018-08-08T19:03:31Z</time>
      </trkpt>
      <trkpt lat="49.00962" lon="2.01741">
        <ele>102</ele>
        <time>2018-08-08T19:03:40Z</time>
      </trkpt>
      <trkpt lat="49.00971" lon="2.01744">
        <ele>103</ele>
        <time>2018-08-08T19:03:59Z</time>
      </trkpt>
      <trkpt lat="49.0098" lon="2.0175">
        <ele>105</ele>
        <time>2018-08-08T19:04:09Z</time>
      </trkpt>
      <trkpt lat="49.0099" lon="2.01754">
        <ele>105</ele>
        <time>2018-08-08T19:04:15Z</time>
      </trkpt>
      <trkpt lat="49.01" lon="2.01756">
        <ele>106</ele>
        <time>2018-08-08T19:04:23Z</time>
      </trkpt>
      <trkpt lat="49.01009" lon="2.01763">
        <ele>106</ele>
        <time>2018-08-08T19:04:30Z</time>
      </trkpt>
      <trkpt lat="49.01017" lon="2.01772">
        <ele>106</ele>
        <time>2018-08-08T19:04:36Z</time>
      </trkpt>
      <trkpt lat="49.01024" lon="2.01783">
        <ele>107</ele>
        <time>2018-08-08T19:04:44Z</time>
      </trkpt>
      <trkpt lat="49.01029" lon="2.01794">
        <ele>106</ele>
        <time>2018-08-08T19:04:51Z</time>
      </trkpt>
      <trkpt lat="49.01035" lon="2.01806">
        <ele>106</ele>
        <time>2018-08-08T19:04:59Z</time>
      </trkpt>
      <trkpt lat="49.0104" lon="2.01819">
        <ele>105</ele>
        <time>2018-08-08T19:05:10Z</time>
      </trkpt>
      <trkpt lat="49.01044" lon="2.01831">
        <ele>105</ele>
        <time>2018-08-08T19:05:18Z</time>
      </trkpt>
      <trkpt lat="49.01049" lon="2.01844">
        <ele>105</ele>
        <time>2018-08-08T19:05:27Z</time>
      </trkpt>
      <trkpt lat="49.01055" lon="2.01855">
        <ele>104</ele>
        <time>2018-08-08T19:05:35Z</time>
      </trkpt>
      <trkpt lat="49.0106" lon="2.01868">
        <ele>103</ele>
        <time>2018-08-08T19:05:44Z</time>
      </trkpt>
      <trkpt lat="49.01065" lon="2.0188">
        <ele>102</ele>
        <time>2018-08-08T19:05:52Z</time>
      </trkpt>
      <trkpt lat="49.01071" lon="2.01892">
        <ele>102</ele>
        <time>2018-08-08T19:06:00Z</time>
      </trkpt>
      <trkpt lat="49.01077" lon="2.01904">
        <ele>101</ele>
        <time>2018-08-08T19:06:06Z</time>
      </trkpt>
      <trkpt lat="49.01082" lon="2.01914">
        <ele>101</ele>
        <time>2018-08-08T19:06:12Z</time>
      </trkpt>
      <trkpt lat="49.01088" lon="2.01927">
        <ele>101</ele>
        <time>2018-08-08T19:06:20Z</time>
      </trkpt>
      <trkpt lat="49.01094" lon="2.01939">
        <ele>100</ele>
        <time>2018-08-08T19:06:27Z</time>
      </trkpt>
      <trkpt lat="49.011" lon="2.01951">
        <ele>100</ele>
        <time>2018-08-08T19:06:34Z</time>
      </trkpt>
      <trkpt lat="49.01107" lon="2.01965">
        <ele>100</ele>
        <time>2018-08-08T19:06:41Z</time>
      </trkpt>
      <trkpt lat="49.01113" lon="2.01976">
        <ele>99</ele>
        <time>2018-08-08T19:06:48Z</time>
      </trkpt>
      <trkpt lat="49.01118" lon="2.01989">
        <ele>98</ele>
        <time>2018-08-08T19:06:57Z</time>
      </trkpt>
      <trkpt lat="49.01128" lon="2.01992">
        <ele>98</ele>
        <time>2018-08-08T19:07:06Z</time>
      </trkpt>
      <trkpt lat="49.01138" lon="2.01987">
        <ele>98</ele>
        <time>2018-08-08T19:07:14Z</time>
      </trkpt>
      <trkpt lat="49.01148" lon="2.01985">
        <ele>97</ele>
        <time>2018-08-08T19:07:21Z</time>
      </trkpt>
      <trkpt lat="49.01155" lon="2.01994">
        <ele>98</ele>
        <time>2018-08-08T19:07:30Z</time>
      </trkpt>
      <trkpt lat="49.01158" lon="2.02009">
        <ele>98</ele>
        <time>2018-08-08T19:07:39Z</time>
      </trkpt>
      <trkpt lat="49.01163" lon="2.02021">
        <ele>98</ele>
        <time>2018-08-08T19:07:46Z</time>
      </trkpt>
      <trkpt lat="49.01169" lon="2.02034">
        <ele>98</ele>
        <time>2018-08-08T19:07:53Z</time>
      </trkpt>
      <trkpt lat="49.01173" lon="2.02047">
        <ele>98</ele>
        <time>2018-08-08T19:07:59Z</time>
      </trkpt>
      <trkpt lat="49.01178" lon="2.0206">
        <ele>98</ele>
        <time>2018-08-08T19:08:06Z</time>
      </trkpt>
      <trkpt lat="49.01182" lon="2.02074">
        <ele>98</ele>
        <time>2018-08-08T19:08:13Z</time>
      </trkpt>
      <trkpt lat="49.01186" lon="2.02087">
        <ele>98</ele>
        <time>2018-08-08T19:08:20Z</time>
      </trkpt>
      <trkpt lat="49.0119" lon="2.02101">
        <ele>99</ele>
        <time>2018-08-08T19:08:27Z</time>
      </trkpt>
      <trkpt lat="49.01193" lon="2.02115">
        <ele>99</ele>
        <time>2018-08-08T19:08:35Z</time>
      </trkpt>
      <trkpt lat="49.01197" lon="2.02128">
        <ele>99</ele>
        <time>2018-08-08T19:08:43Z</time>
      </trkpt>
      <trkpt lat="49.01201" lon="2.02142">
        <ele>98</ele>
        <time>2018-08-08T19:08:51Z</time>
      </trkpt>
      <trkpt lat="49.01206" lon="2.02154">
        <ele>98</ele>
        <time>2018-08-08T19:08:58Z</time>
      </trkpt>
      <trkpt lat="49.0121" lon="2.02167">
        <ele>97</ele>
        <time>2018-08-08T19:09:05Z</time>
      </trkpt>
      <trkpt lat="49.01213" lon="2.0218">
        <ele>97</ele>
        <time>2018-08-08T19:09:12Z</time>
      </trkpt>
      <trkpt lat="49.01217" lon="2.02193">
        <ele>97</ele>
        <time>2018-08-08T19:09:20Z</time>
      </trkpt>
      <trkpt lat="49.0122" lon="2.02207">
        <ele>96</ele>
        <time>2018-08-08T19:09:28Z</time>
      </trkpt>
      <trkpt lat="49.01223" lon="2.02222">
        <ele>95</ele>
        <time>2018-08-08T19:09:36Z</time>
      </trkpt>
      <trkpt lat="49.01228" lon="2.02234">
        <ele>94</ele>
        <time>2018-08-08T19:09:43Z</time>
      </trkpt>
      <trkpt lat="49.01233" lon="2.02246">
        <ele>94</ele>
        <time>2018-08-08T19:09:49Z</time>
      </trkpt>
      <trkpt lat="49.01237" lon="2.02259">
        <ele>94</ele>
        <time>2018-08-08T19:09:55Z</time>
      </trkpt>
      <trkpt lat="49.01241" lon="2.02272">
        <ele>94</ele>
        <time>2018-08-08T19:10:01Z</time>
      </trkpt>
      <trkpt lat="49.01245" lon="2.02287">
        <ele>93</ele>
        <time>2018-08-08T19:10:09Z</time>
      </trkpt>
      <trkpt lat="49.0125" lon="2.02298">
        <ele>93</ele>
        <time>2018-08-08T19:10:15Z</time>
      </trkpt>
      <trkpt lat="49.01254" lon="2.02313">
        <ele>93</ele>
        <time>2018-08-08T19:10:23Z</time>
      </trkpt>
      <trkpt lat="49.01259" lon="2.02325">
        <ele>93</ele>
        <time>2018-08-08T19:10:29Z</time>
      </trkpt>
      <trkpt lat="49.01265" lon="2.02337">
        <ele>93</ele>
        <time>2018-08-08T19:10:36Z</time>
      </trkpt>
      <trkpt lat="49.01271" lon="2.02348">
        <ele>94</ele>
        <time>2018-08-08T19:10:43Z</time>
      </trkpt>
      <trkpt lat="49.01276" lon="2.0236">
        <ele>93</ele>
        <time>2018-08-08T19:10:51Z</time>
      </trkpt>
      <trkpt lat="49.01281" lon="2.02372">
        <ele>93</ele>
        <time>2018-08-08T19:10:59Z</time>
      </trkpt>
      <trkpt lat="49.01286" lon="2.02384">
        <ele>92</ele>
        <time>2018-08-08T19:11:06Z</time>
      </trkpt>
      <trkpt lat="49.01291" lon="2.02397">
        <ele>92</ele>
        <time>2018-08-08T19:11:15Z</time>
      </trkpt>
      <trkpt lat="49.01297" lon="2.02409">
        <ele>91</ele>
        <time>2018-08-08T19:11:23Z</time>
      </trkpt>
      <trkpt lat="49.01302" lon="2.0242">
        <ele>90</ele>
        <time>2018-08-08T19:11:30Z</time>
      </trkpt>
      <trkpt lat="49.01307" lon="2.02432">
        <ele>89</ele>
        <time>2018-08-08T19:11:38Z</time>
      </trkpt>
      <trkpt lat="49.01312" lon="2.02446">
        <ele>88</ele>
        <time>2018-08-08T19:11:48Z</time>
      </trkpt>
      <trkpt lat="49.01308" lon="2.0246">
        <ele>86</ele>
        <time>2018-08-08T19:11:55Z</time>
      </trkpt>
      <trkpt lat="49.01309" lon="2.02474">
        <ele>85</ele>
        <time>2018-08-08T19:12:03Z</time>
      </trkpt>
      <trkpt lat="49.01313" lon="2.02488">
        <ele>83</ele>
        <time>2018-08-08T19:12:10Z</time>
      </trkpt>
      <trkpt lat="49.01315" lon="2.02502">
        <ele>83</ele>
        <time>2018-08-08T19:12:16Z</time>
      </trkpt>
      <trkpt lat="49.01317" lon="2.02517">
        <ele>82</ele>
        <time>2018-08-08T19:12:25Z</time>
      </trkpt>
      <trkpt lat="49.01318" lon="2.02532">
        <ele>82</ele>
        <time>2018-08-08T19:12:33Z</time>
      </trkpt>
      <trkpt lat="49.01321" lon="2.02548">
        <ele>82</ele>
        <time>2018-08-08T19:12:41Z</time>
      </trkpt>
      <trkpt lat="49.01322" lon="2.02563">
        <ele>83</ele>
        <time>2018-08-08T19:12:47Z</time>
      </trkpt>
      <trkpt lat="49.01319" lon="2.02577">
        <ele>83</ele>
        <time>2018-08-08T19:12:55Z</time>
      </trkpt>
      <trkpt lat="49.01313" lon="2.02588">
        <ele>83</ele>
        <time>2018-08-08T19:13:01Z</time>
      </trkpt>
      <trkpt lat="49.01309" lon="2.026">
        <ele>84</ele>
        <time>2018-08-08T19:13:09Z</time>
      </trkpt>
      <trkpt lat="49.01302" lon="2.0261">
        <ele>85</ele>
        <time>2018-08-08T19:13:20Z</time>
      </trkpt>
      <trkpt lat="49.01297" lon="2.02623">
        <ele>86</ele>
        <time>2018-08-08T19:13:28Z</time>
      </trkpt>
      <trkpt lat="49.01293" lon="2.02638">
        <ele>87</ele>
        <time>2018-08-08T19:13:36Z</time>
      </trkpt>
      <trkpt lat="49.01291" lon="2.02652">
        <ele>87</ele>
        <time>2018-08-08T19:13:44Z</time>
      </trkpt>
      <trkpt lat="49.01297" lon="2.02662">
        <ele>88</ele>
        <time>2018-08-08T19:13:53Z</time>
      </trkpt>
      <trkpt lat="49.01304" lon="2.02672">
        <ele>88</ele>
        <time>2018-08-08T19:14:00Z</time>
      </trkpt>
      <trkpt lat="49.01313" lon="2.02679">
        <ele>88</ele>
        <time>2018-08-08T19:14:07Z</time>
      </trkpt>
      <trkpt lat="49.01321" lon="2.02687">
        <ele>88</ele>
        <time>2018-08-08T19:14:14Z</time>
      </trkpt>
      <trkpt lat="49.01328" lon="2.02697">
        <ele>88</ele>
        <time>2018-08-08T19:14:20Z</time>
      </trkpt>
      <trkpt lat="49.01333" lon="2.02708">
        <ele>87</ele>
        <time>2018-08-08T19:14:27Z</time>
      </trkpt>
      <trkpt lat="49.01339" lon="2.02721">
        <ele>86</ele>
        <time>2018-08-08T19:14:36Z</time>
      </trkpt>
      <trkpt lat="49.01344" lon="2.02733">
        <ele>85</ele>
        <time>2018-08-08T19:14:44Z</time>
      </trkpt>
      <trkpt lat="49.01353" lon="2.0274">
        <ele>85</ele>
        <time>2018-08-08T19:14:54Z</time>
      </trkpt>
      <trkpt lat="49.0136" lon="2.02751">
        <ele>85</ele>
        <time>2018-08-08T19:15:03Z</time>
      </trkpt>
      <trkpt lat="49.01368" lon="2.02745">
        <ele>85</ele>
        <time>2018-08-08T19:15:15Z</time>
      </trkpt>
      <trkpt lat="49.01376" lon="2.02738">
        <ele>85</ele>
        <time>2018-08-08T19:15:22Z</time>
      </trkpt>
      <trkpt lat="49.01383" lon="2.02728">
        <ele>84</ele>
        <time>2018-08-08T19:15:28Z</time>
      </trkpt>
      <trkpt lat="49.01388" lon="2.02717">
        <ele>84</ele>
        <time>2018-08-08T19:15:33Z</time>
      </trkpt>
      <trkpt lat="49.01396" lon="2.02708">
        <ele>84</ele>
        <time>2018-08-08T19:15:41Z</time>
      </trkpt>
      <trkpt lat="49.01404" lon="2.02701">
        <ele>84</ele>
        <time>2018-08-08T19:15:49Z</time>
      </trkpt>
      <trkpt lat="49.01409" lon="2.02689">
        <ele>84</ele>
        <time>2018-08-08T19:16:00Z</time>
      </trkpt>
      <trkpt lat="49.01418" lon="2.02684">
        <ele>83</ele>
        <time>2018-08-08T19:16:07Z</time>
      </trkpt>
      <trkpt lat="49.01427" lon="2.02681">
        <ele>82</ele>
        <time>2018-08-08T19:16:13Z</time>
      </trkpt>
      <trkpt lat="49.01436" lon="2.02678">
        <ele>82</ele>
        <time>2018-08-08T19:16:19Z</time>
      </trkpt>
      <trkpt lat="49.01445" lon="2.0267">
        <ele>81</ele>
        <time>2018-08-08T19:16:27Z</time>
      </trkpt>
      <trkpt lat="49.01452" lon="2.02661">
        <ele>80</ele>
        <time>2018-08-08T19:16:34Z</time>
      </trkpt>
      <trkpt lat="49.0146" lon="2.02653">
        <ele>79</ele>
        <time>2018-08-08T19:16:41Z</time>
      </trkpt>
      <trkpt lat="49.01468" lon="2.02646">
        <ele>78</ele>
        <time>2018-08-08T19:16:48Z</time>
      </trkpt>
      <trkpt lat="49.01476" lon="2.0264">
        <ele>77</ele>
        <time>2018-08-08T19:16:56Z</time>
      </trkpt>
      <trkpt lat="49.01483" lon="2.02629">
        <ele>76</ele>
        <time>2018-08-08T19:17:03Z</time>
      </trkpt>
      <trkpt lat="49.0149" lon="2.02619">
        <ele>75</ele>
        <time>2018-08-08T19:17:10Z</time>
      </trkpt>
      <trkpt lat="49.01497" lon="2.02609">
        <ele>74</ele>
        <time>2018-08-08T19:17:17Z</time>
      </trkpt>
      <trkpt lat="49.01504" lon="2.02599">
        <ele>73</ele>
        <time>2018-08-08T19:17:26Z</time>
      </trkpt>
      <trkpt lat="49.01513" lon="2.02601">
        <ele>70</ele>
        <time>2018-08-08T19:17:44Z</time>
      </trkpt>
      <trkpt lat="49.01521" lon="2.02609">
        <ele>69</ele>
        <time>2018-08-08T19:17:50Z</time>
      </trkpt>
      <trkpt lat="49.01529" lon="2.02618">
        <ele>68</ele>
        <time>2018-08-08T19:17:54Z</time>
      </trkpt>
      <trkpt lat="49.01537" lon="2.02629">
        <ele>67</ele>
        <time>2018-08-08T19:18:00Z</time>
      </trkpt>
      <trkpt lat="49.01542" lon="2.02641">
        <ele>66</ele>
        <time>2018-08-08T19:18:12Z</time>
      </trkpt>
      <trkpt lat="49.01547" lon="2.02653">
        <ele>64</ele>
        <time>2018-08-08T19:18:20Z</time>
      </trkpt>
      <trkpt lat="49.01551" lon="2.02666">
        <ele>62</ele>
        <time>2018-08-08T19:18:27Z</time>
      </trkpt>
      <trkpt lat="49.01555" lon="2.02679">
        <ele>60</ele>
        <time>2018-08-08T19:18:39Z</time>
      </trkpt>
      <trkpt lat="49.01559" lon="2.02692">
        <ele>59</ele>
        <time>2018-08-08T19:18:47Z</time>
      </trkpt>
      <trkpt lat="49.01563" lon="2.02706">
        <ele>57</ele>
        <time>2018-08-08T19:18:59Z</time>
      </trkpt>
      <trkpt lat="49.01565" lon="2.0272">
        <ele>56</ele>
        <time>2018-08-08T19:19:06Z</time>
      </trkpt>
      <trkpt lat="49.01569" lon="2.02733">
        <ele>54</ele>
        <time>2018-08-08T19:19:12Z</time>
      </trkpt>
      <trkpt lat="49.01571" lon="2.02747">
        <ele>53</ele>
        <time>2018-08-08T19:19:20Z</time>
      </trkpt>
      <trkpt lat="49.01574" lon="2.0276">
        <ele>51</ele>
        <time>2018-08-08T19:19:27Z</time>
      </trkpt>
      <trkpt lat="49.01576" lon="2.02775">
        <ele>50</ele>
        <time>2018-08-08T19:19:35Z</time>
      </trkpt>
      <trkpt lat="49.01578" lon="2.02789">
        <ele>48</ele>
        <time>2018-08-08T19:19:42Z</time>
      </trkpt>
      <trkpt lat="49.0158" lon="2.02804">
        <ele>47</ele>
        <time>2018-08-08T19:19:53Z</time>
      </trkpt>
      <trkpt lat="49.0158" lon="2.02819">
        <ele>45</ele>
        <time>2018-08-08T19:20:00Z</time>
      </trkpt>
      <trkpt lat="49.0158" lon="2.02835">
        <ele>44</ele>
        <time>2018-08-08T19:20:07Z</time>
      </trkpt>
      <trkpt lat="49.01582" lon="2.02849">
        <ele>43</ele>
        <time>2018-08-08T19:20:14Z</time>
      </trkpt>
      <trkpt lat="49.01583" lon="2.02863">
        <ele>42</ele>
        <time>2018-08-08T19:20:24Z</time>
      </trkpt>
      <trkpt lat="49.01586" lon="2.02877">
        <ele>41</ele>
        <time>2018-08-08T19:20:30Z</time>
      </trkpt>
      <trkpt lat="49.01588" lon="2.02891">
        <ele>40</ele>
        <time>2018-08-08T19:20:39Z</time>
      </trkpt>
      <trkpt lat="49.01589" lon="2.02905">
        <ele>39</ele>
        <time>2018-08-08T19:20:48Z</time>
      </trkpt>
      <trkpt lat="49.01591" lon="2.02919">
        <ele>38</ele>
        <time>2018-08-08T19:20:57Z</time>
      </trkpt>
      <trkpt lat="49.01587" lon="2.02933">
        <ele>37</ele>
        <time>2018-08-08T19:21:07Z</time>
      </trkpt>
      <trkpt lat="49.01582" lon="2.02945">
        <ele>35</ele>
        <time>2018-08-08T19:21:14Z</time>
      </trkpt>
      <trkpt lat="49.01578" lon="2.02958">
        <ele>34</ele>
        <time>2018-08-08T19:21:22Z</time>
      </trkpt>
      <trkpt lat="49.01576" lon="2.02973">
        <ele>33</ele>
        <time>2018-08-08T19:21:31Z</time>
      </trkpt>
      <trkpt lat="49.01576" lon="2.02987">
        <ele>33</ele>
        <time>2018-08-08T19:21:41Z</time>
      </trkpt>
      <trkpt lat="49.01577" lon="2.03002">
        <ele>34</ele>
        <time>2018-08-08T19:21:49Z</time>
      </trkpt>
      <trkpt lat="49.01587" lon="2.03002">
        <ele>38</ele>
        <time>2018-08-08T19:22:48Z</time>
      </trkpt>
      <trkpt lat="49.01595" lon="2.0301">
        <ele>38</ele>
        <time>2018-08-08T19:22:58Z</time>
      </trkpt>
      <trkpt lat="49.01604" lon="2.03013">
        <ele>39</ele>
        <time>2018-08-08T19:23:26Z</time>
      </trkpt>
      <trkpt lat="49.01613" lon="2.03012">
        <ele>39</ele>
        <time>2018-08-08T19:23:38Z</time>
      </trkpt>
      <trkpt lat="49.01623" lon="2.03015">
        <ele>39</ele>
        <time>2018-08-08T19:23:43Z</time>
      </trkpt>
      <trkpt lat="49.01632" lon="2.03012">
        <ele>40</ele>
        <time>2018-08-08T19:23:51Z</time>
      </trkpt>
      <trkpt lat="49.01642" lon="2.0301">
        <ele>40</ele>
        <time>2018-08-08T19:23:56Z</time>
      </trkpt>
      <trkpt lat="49.0165" lon="2.03003">
        <ele>40</ele>
        <time>2018-08-08T19:24:03Z</time>
      </trkpt>
      <trkpt lat="49.01652" lon="2.02988">
        <ele>41</ele>
        <time>2018-08-08T19:24:12Z</time>
      </trkpt>
      <trkpt lat="49.01661" lon="2.02991">
        <ele>46</ele>
        <time>2018-08-08T19:24:48Z</time>
      </trkpt>
      <trkpt lat="49.01669" lon="2.02985">
        <ele>50</ele>
        <time>2018-08-08T19:25:11Z</time>
      </trkpt>
      <trkpt lat="49.01679" lon="2.02986">
        <ele>53</ele>
        <time>2018-08-08T19:25:27Z</time>
      </trkpt>
      <trkpt lat="49.01688" lon="2.02991">
        <ele>54</ele>
        <time>2018-08-08T19:25:43Z</time>
      </trkpt>
      <trkpt lat="49.01696" lon="2.02995">
        <ele>56</ele>
        <time>2018-08-08T19:25:53Z</time>
      </trkpt>
      <trkpt lat="49.01706" lon="2.02994">
        <ele>57</ele>
        <time>2018-08-08T19:26:03Z</time>
      </trkpt>
      <trkpt lat="49.01716" lon="2.02993">
        <ele>58</ele>
        <time>2018-08-08T19:26:25Z</time>
      </trkpt>
      <trkpt lat="49.01724" lon="2.02986">
        <ele>58</ele>
        <time>2018-08-08T19:26:38Z</time>
      </trkpt>
      <trkpt lat="49.01733" lon="2.02983">
        <ele>58</ele>
        <time>2018-08-08T19:26:46Z</time>
      </trkpt>
      <trkpt lat="49.01741" lon="2.02978">
        <ele>57</ele>
        <time>2018-08-08T19:26:51Z</time>
      </trkpt>
      <trkpt lat="49.01748" lon="2.02968">
        <ele>56</ele>
        <time>2018-08-08T19:26:58Z</time>
      </trkpt>
      <trkpt lat="49.01757" lon="2.02964">
        <ele>56</ele>
        <time>2018-08-08T19:27:07Z</time>
      </trkpt>
      <trkpt lat="49.01767" lon="2.02965">
        <ele>56</ele>
        <time>2018-08-08T19:27:14Z</time>
      </trkpt>
      <trkpt lat="49.01776" lon="2.02968">
        <ele>56</ele>
        <time>2018-08-08T19:27:20Z</time>
      </trkpt>
      <trkpt lat="49.01785" lon="2.02969">
        <ele>57</ele>
        <time>2018-08-08T19:27:25Z</time>
      </trkpt>
      <trkpt lat="49.01795" lon="2.02971">
        <ele>58</ele>
        <time>2018-08-08T19:27:32Z</time>
      </trkpt>
      <trkpt lat="49.01804" lon="2.02972">
        <ele>59</ele>
        <time>2018-08-08T19:27:40Z</time>
      </trkpt>
      <trkpt lat="49.01815" lon="2.02971">
        <ele>60</ele>
        <time>2018-08-08T19:27:47Z</time>
      </trkpt>
      <trkpt lat="49.01825" lon="2.02971">
        <ele>61</ele>
        <time>2018-08-08T19:27:52Z</time>
      </trkpt>
      <trkpt lat="49.01835" lon="2.0297">
        <ele>62</ele>
        <time>2018-08-08T19:27:59Z</time>
      </trkpt>
      <trkpt lat="49.01844" lon="2.02968">
        <ele>64</ele>
        <time>2018-08-08T19:28:07Z</time>
      </trkpt>
      <trkpt lat="49.01853" lon="2.02961">
        <ele>65</ele>
        <time>2018-08-08T19:28:15Z</time>
      </trkpt>
      <trkpt lat="49.01862" lon="2.02958">
        <ele>66</ele>
        <time>2018-08-08T19:28:26Z</time>
      </trkpt>
      <trkpt lat="49.01871" lon="2.02965">
        <ele>67</ele>
        <time>2018-08-08T19:28:34Z</time>
      </trkpt>
      <trkpt lat="49.01878" lon="2.02975">
        <ele>67</ele>
        <time>2018-08-08T19:28:49Z</time>
      </trkpt>
      <trkpt lat="49.01883" lon="2.02986">
        <ele>67</ele>
        <time>2018-08-08T19:28:57Z</time>
      </trkpt>
      <trkpt lat="49.01887" lon="2.03">
        <ele>66</ele>
        <time>2018-08-08T19:29:06Z</time>
      </trkpt>
      <trkpt lat="49.0189" lon="2.03014">
        <ele>65</ele>
        <time>2018-08-08T19:29:12Z</time>
      </trkpt>
      <trkpt lat="49.01892" lon="2.03028">
        <ele>64</ele>
        <time>2018-08-08T19:29:20Z</time>
      </trkpt>
      <trkpt lat="49.01893" lon="2.03043">
        <ele>63</ele>
        <time>2018-08-08T19:29:29Z</time>
      </trkpt>
      <trkpt lat="49.01894" lon="2.03057">
        <ele>62</ele>
        <time>2018-08-08T19:29:37Z</time>
      </trkpt>
      <trkpt lat="49.01895" lon="2.03073">
        <ele>61</ele>
        <time>2018-08-08T19:29:44Z</time>
      </trkpt>
      <trkpt lat="49.01895" lon="2.03089">
        <ele>60</ele>
        <time>2018-08-08T19:29:50Z</time>
      </trkpt>
      <trkpt lat="49.01895" lon="2.03103">
        <ele>59</ele>
        <time>2018-08-08T19:29:55Z</time>
      </trkpt>
      <trkpt lat="49.01893" lon="2.03118">
        <ele>59</ele>
        <time>2018-08-08T19:30:01Z</time>
      </trkpt>
      <trkpt lat="49.01892" lon="2.03132">
        <ele>58</ele>
        <time>2018-08-08T19:30:07Z</time>
      </trkpt>
      <trkpt lat="49.0189" lon="2.03147">
        <ele>57</ele>
        <time>2018-08-08T19:30:14Z</time>
      </trkpt>
      <trkpt lat="49.01889" lon="2.03162">
        <ele>57</ele>
        <time>2018-08-08T19:30:20Z</time>
      </trkpt>
      <trkpt lat="49.01886" lon="2.03177">
        <ele>57</ele>
        <time>2018-08-08T19:30:26Z</time>
      </trkpt>
      <trkpt lat="49.01884" lon="2.03193">
        <ele>58</ele>
        <time>2018-08-08T19:30:34Z</time>
      </trkpt>
      <trkpt lat="49.01883" lon="2.03208">
        <ele>58</ele>
        <time>2018-08-08T19:30:40Z</time>
      </trkpt>
      <trkpt lat="49.01881" lon="2.03224">
        <ele>59</ele>
        <time>2018-08-08T19:30:47Z</time>
      </trkpt>
      <trkpt lat="49.01879" lon="2.03239">
        <ele>60</ele>
        <time>2018-08-08T19:30:54Z</time>
      </trkpt>
      <trkpt lat="49.01877" lon="2.03252">
        <ele>60</ele>
        <time>2018-08-08T19:31:01Z</time>
      </trkpt>
      <trkpt lat="49.01876" lon="2.03267">
        <ele>61</ele>
        <time>2018-08-08T19:31:09Z</time>
      </trkpt>
      <trkpt lat="49.01874" lon="2.03282">
        <ele>62</ele>
        <time>2018-08-08T19:31:21Z</time>
      </trkpt>
      <trkpt lat="49.01874" lon="2.03298">
        <ele>62</ele>
        <time>2018-08-08T19:31:30Z</time>
      </trkpt>
      <trkpt lat="49.01875" lon="2.03312">
        <ele>62</ele>
        <time>2018-08-08T19:31:37Z</time>
      </trkpt>
      <trkpt lat="49.01877" lon="2.03326">
        <ele>62</ele>
        <time>2018-08-08T19:31:51Z</time>
      </trkpt>
      <trkpt lat="49.01878" lon="2.03341">
        <ele>62</ele>
        <time>2018-08-08T19:31:59Z</time>
      </trkpt>
      <trkpt lat="49.0188" lon="2.03356">
        <ele>62</ele>
        <time>2018-08-08T19:32:08Z</time>
      </trkpt>
      <trkpt lat="49.01883" lon="2.03369">
        <ele>62</ele>
        <time>2018-08-08T19:32:16Z</time>
      </trkpt>
      <trkpt lat="49.01887" lon="2.03383">
        <ele>62</ele>
        <time>2018-08-08T19:32:23Z</time>
      </trkpt>
      <trkpt lat="49.01889" lon="2.03397">
        <ele>62</ele>
        <time>2018-08-08T19:32:32Z</time>
      </trkpt>
      <trkpt lat="49.01894" lon="2.0341">
        <ele>61</ele>
        <time>2018-08-08T19:32:41Z</time>
      </trkpt>
      <trkpt lat="49.01898" lon="2.03423">
        <ele>61</ele>
        <time>2018-08-08T19:32:49Z</time>
      </trkpt>
      <trkpt lat="49.01904" lon="2.03435">
        <ele>61</ele>
        <time>2018-08-08T19:32:55Z</time>
      </trkpt>
      <trkpt lat="49.0191" lon="2.03446">
        <ele>60</ele>
        <time>2018-08-08T19:33:01Z</time>
      </trkpt>
      <trkpt lat="49.01916" lon="2.03458">
        <ele>60</ele>
        <time>2018-08-08T19:33:08Z</time>
      </trkpt>
      <trkpt lat="49.01921" lon="2.03471">
        <ele>59</ele>
        <time>2018-08-08T19:33:14Z</time>
      </trkpt>
      <trkpt lat="49.01927" lon="2.03485">
        <ele>59</ele>
        <time>2018-08-08T19:33:21Z</time>
      </trkpt>
      <trkpt lat="49.01932" lon="2.03498">
        <ele>58</ele>
        <time>2018-08-08T19:33:29Z</time>
      </trkpt>
      <trkpt lat="49.01935" lon="2.03511">
        <ele>58</ele>
        <time>2018-08-08T19:33:38Z</time>
      </trkpt>
      <trkpt lat="49.0194" lon="2.03524">
        <ele>57</ele>
        <time>2018-08-08T19:33:45Z</time>
      </trkpt>
      <trkpt lat="49.01944" lon="2.03536">
        <ele>57</ele>
        <time>2018-08-08T19:33:52Z</time>
      </trkpt>
      <trkpt lat="49.0195" lon="2.03549">
        <ele>56</ele>
        <time>2018-08-08T19:33:57Z</time>
      </trkpt>
      <trkpt lat="49.01956" lon="2.03561">
        <ele>55</ele>
        <time>2018-08-08T19:34:03Z</time>
      </trkpt>
      <trkpt lat="49.01962" lon="2.03574">
        <ele>54</ele>
        <time>2018-08-08T19:34:10Z</time>
      </trkpt>
      <trkpt lat="49.01965" lon="2.03587">
        <ele>53</ele>
        <time>2018-08-08T19:34:24Z</time>
      </trkpt>
      <trkpt lat="49.01968" lon="2.03601">
        <ele>52</ele>
        <time>2018-08-08T19:34:43Z</time>
      </trkpt>
      <trkpt lat="49.01972" lon="2.03616">
        <ele>52</ele>
        <time>2018-08-08T19:34:49Z</time>
      </trkpt>
      <trkpt lat="49.01977" lon="2.03628">
        <ele>51</ele>
        <time>2018-08-08T19:34:57Z</time>
      </trkpt>
      <trkpt lat="49.01983" lon="2.03639">
        <ele>51</ele>
        <time>2018-08-08T19:35:05Z</time>
      </trkpt>
      <trkpt lat="49.01986" lon="2.03654">
        <ele>50</ele>
        <time>2018-08-08T19:35:14Z</time>
      </trkpt>
      <trkpt lat="49.0199" lon="2.03666">
        <ele>50</ele>
        <time>2018-08-08T19:35:21Z</time>
      </trkpt>
      <trkpt lat="49.01994" lon="2.03681">
        <ele>50</ele>
        <time>2018-08-08T19:35:27Z</time>
      </trkpt>
      <trkpt lat="49.02" lon="2.03692">
        <ele>50</ele>
        <time>2018-08-08T19:35:33Z</time>
      </trkpt>
      <trkpt lat="49.02006" lon="2.03705">
        <ele>51</ele>
        <time>2018-08-08T19:35:40Z</time>
      </trkpt>
      <trkpt lat="49.02011" lon="2.03718">
        <ele>52</ele>
        <time>2018-08-08T19:35:47Z</time>
      </trkpt>
      <trkpt lat="49.02016" lon="2.03732">
        <ele>53</ele>
        <time>2018-08-08T19:35:53Z</time>
      </trkpt>
      <trkpt lat="49.0202" lon="2.03746">
        <ele>53</ele>
        <time>2018-08-08T19:36:01Z</time>
      </trkpt>
      <trkpt lat="49.02025" lon="2.0376">
        <ele>54</ele>
        <time>2018-08-08T19:36:17Z</time>
      </trkpt>
      <trkpt lat="49.02029" lon="2.03773">
        <ele>54</ele>
        <time>2018-08-08T19:36:25Z</time>
      </trkpt>
      <trkpt lat="49.0203" lon="2.03788">
        <ele>54</ele>
        <time>2018-08-08T19:36:34Z</time>
      </trkpt>
      <trkpt lat="49.02031" lon="2.03802">
        <ele>53</ele>
        <time>2018-08-08T19:36:45Z</time>
      </trkpt>
      <trkpt lat="49.02033" lon="2.03817">
        <ele>52</ele>
        <time>2018-08-08T19:36:56Z</time>
      </trkpt>
      <trkpt lat="49.02034" lon="2.03831">
        <ele>51</ele>
        <time>2018-08-08T19:37:07Z</time>
      </trkpt>
      <trkpt lat="49.02036" lon="2.03845">
        <ele>49</ele>
        <time>2018-08-08T19:37:22Z</time>
      </trkpt>
      <trkpt lat="49.02036" lon="2.0386">
        <ele>45</ele>
        <time>2018-08-08T19:37:37Z</time>
      </trkpt>
      <trkpt lat="49.02036" lon="2.03874">
        <ele>43</ele>
        <time>2018-08-08T19:37:48Z</time>
      </trkpt>
      <trkpt lat="49.02033" lon="2.03888">
        <ele>41</ele>
        <time>2018-08-08T19:37:56Z</time>
      </trkpt>
      <trkpt lat="49.0203" lon="2.03901">
        <ele>38</ele>
        <time>2018-08-08T19:38:05Z</time>
      </trkpt>
      <trkpt lat="49.02027" lon="2.03916">
        <ele>36</ele>
        <time>2018-08-08T19:38:13Z</time>
      </trkpt>
      <trkpt lat="49.02025" lon="2.03932">
        <ele>34</ele>
        <time>2018-08-08T19:38:22Z</time>
      </trkpt>
      <trkpt lat="49.02024" lon="2.03946">
        <ele>32</ele>
        <time>2018-08-08T19:38:30Z</time>
      </trkpt>
      <trkpt lat="49.02024" lon="2.0396">
        <ele>30</ele>
        <time>2018-08-08T19:38:38Z</time>
      </trkpt>
      <trkpt lat="49.02022" lon="2.03974">
        <ele>29</ele>
        <time>2018-08-08T19:38:48Z</time>
      </trkpt>
      <trkpt lat="49.02018" lon="2.03987">
        <ele>27</ele>
        <time>2018-08-08T19:39:04Z</time>
      </trkpt>
      <trkpt lat="49.02009" lon="2.03993">
        <ele>26</ele>
        <time>2018-08-08T19:39:10Z</time>
      </trkpt>
      <trkpt lat="49.02" lon="2.03992">
        <ele>25</ele>
        <time>2018-08-08T19:39:17Z</time>
      </trkpt>
      <trkpt lat="49.0199" lon="2.03994">
        <ele>25</ele>
        <time>2018-08-08T19:39:24Z</time>
      </trkpt>
      <trkpt lat="49.01979" lon="2.03997">
        <ele>24</ele>
        <time>2018-08-08T19:39:31Z</time>
      </trkpt>
      <trkpt lat="49.01971" lon="2.04003">
        <ele>22</ele>
        <time>2018-08-08T19:39:40Z</time>
      </trkpt>
      <trkpt lat="49.01964" lon="2.04014">
        <ele>21</ele>
        <time>2018-08-08T19:39:55Z</time>
      </trkpt>
      <trkpt lat="49.01958" lon="2.04025">
        <ele>20</ele>
        <time>2018-08-08T19:40:03Z</time>
      </trkpt>
      <trkpt lat="49.01951" lon="2.04035">
        <ele>19</ele>
        <time>2018-08-08T19:40:10Z</time>
      </trkpt>
      <trkpt lat="49.01945" lon="2.04046">
        <ele>18</ele>
        <time>2018-08-08T19:40:16Z</time>
      </trkpt>
      <trkpt lat="49.01939" lon="2.0406">
        <ele>17</ele>
        <time>2018-08-08T19:40:22Z</time>
      </trkpt>
      <trkpt lat="49.01934" lon="2.04073">
        <ele>16</ele>
        <time>2018-08-08T19:40:29Z</time>
      </trkpt>
      <trkpt lat="49.01929" lon="2.04086">
        <ele>16</ele>
        <time>2018-08-08T19:40:37Z</time>
      </trkpt>
      <trkpt lat="49.01924" lon="2.04099">
        <ele>17</ele>
        <time>2018-08-08T19:40:45Z</time>
      </trkpt>
      <trkpt lat="49.01918" lon="2.04111">
        <ele>17</ele>
        <time>2018-08-08T19:40:53Z</time>
      </trkpt>
      <trkpt lat="49.01912" lon="2.04123">
        <ele>18</ele>
        <time>2018-08-08T19:41:00Z</time>
      </trkpt>
      <trkpt lat="49.01906" lon="2.04134">
        <ele>19</ele>
        <time>2018-08-08T19:41:08Z</time>
      </trkpt>
      <trkpt lat="49.019" lon="2.04143">
        <ele>20</ele>
        <time>2018-08-08T19:41:16Z</time>
      </trkpt>
      <trkpt lat="49.01892" lon="2.04152">
        <ele>22</ele>
        <time>2018-08-08T19:41:27Z</time>
      </trkpt>
      <trkpt lat="49.01885" lon="2.04161">
        <ele>23</ele>
        <time>2018-08-08T19:41:38Z</time>
      </trkpt>
      <trkpt lat="49.01878" lon="2.04171">
        <ele>23</ele>
        <time>2018-08-08T19:41:47Z</time>
      </trkpt>
      <trkpt lat="49.01871" lon="2.04181">
        <ele>23</ele>
        <time>2018-08-08T19:41:55Z</time>
      </trkpt>
      <trkpt lat="49.01865" lon="2.04191">
        <ele>23</ele>
        <time>2018-08-08T19:42:05Z</time>
      </trkpt>
      <trkpt lat="49.0186" lon="2.04204">
        <ele>23</ele>
        <time>2018-08-08T19:42:13Z</time>
      </trkpt>
      <trkpt lat="49.01851" lon="2.04212">
        <ele>23</ele>
        <time>2018-08-08T19:42:24Z</time>
      </trkpt>
      <trkpt lat="49.01843" lon="2.0422">
        <ele>22</ele>
        <time>2018-08-08T19:42:33Z</time>
      </trkpt>
      <trkpt lat="49.01834" lon="2.04226">
        <ele>22</ele>
        <time>2018-08-08T19:42:39Z</time>
      </trkpt>
      <trkpt lat="49.01824" lon="2.04233">
        <ele>21</ele>
        <time>2018-08-08T19:42:45Z</time>
      </trkpt>
      <trkpt lat="49.01816" lon="2.0424">
        <ele>20</ele>
        <time>2018-08-08T19:42:53Z</time>
      </trkpt>
      <trkpt lat="49.01808" lon="2.04247">
        <ele>19</ele>
        <time>2018-08-08T19:43:02Z</time>
      </trkpt>
      <trkpt lat="49.01799" lon="2.04254">
        <ele>17</ele>
        <time>2018-08-08T19:43:10Z</time>
      </trkpt>
      <trkpt lat="49.0179" lon="2.04259">
        <ele>16</ele>
        <time>2018-08-08T19:43:16Z</time>
      </trkpt>
      <trkpt lat="49.01781" lon="2.04265">
        <ele>16</ele>
        <time>2018-08-08T19:43:22Z</time>
      </trkpt>
      <trkpt lat="49.01772" lon="2.04271">
        <ele>14</ele>
        <time>2018-08-08T19:43:30Z</time>
      </trkpt>
      <trkpt lat="49.01764" lon="2.04279">
        <ele>13</ele>
        <time>2018-08-08T19:43:40Z</time>
      </trkpt>
      <trkpt lat="49.01756" lon="2.04287">
        <ele>12</ele>
        <time>2018-08-08T19:43:49Z</time>
      </trkpt>
      <trkpt lat="49.01749" lon="2.04295">
        <ele>10</ele>
        <time>2018-08-08T19:43:57Z</time>
      </trkpt>
      <trkpt lat="49.01741" lon="2.04304">
        <ele>10</ele>
        <time>2018-08-08T19:44:01Z</time>
      </trkpt>
      <trkpt lat="49.01732" lon="2.04313">
        <ele>9</ele>
        <time>2018-08-08T19:44:05Z</time>
      </trkpt>
      <trkpt lat="49.01725" lon="2.04323">
        <ele>8</ele>
        <time>2018-08-08T19:44:11Z</time>
      </trkpt>
      <trkpt lat="49.01722" lon="2.04336">
        <ele>7</ele>
        <time>2018-08-08T19:44:19Z</time>
      </trkpt>
      <trkpt lat="49.01716" lon="2.04348">
        <ele>5</ele>
        <time>2018-08-08T19:44:28Z</time>
      </trkpt>
      <trkpt lat="49.01707" lon="2.04358">
        <ele>5</ele>
        <time>2018-08-08T19:44:34Z</time>
      </trkpt>
      <trkpt lat="49.017" lon="2.0437">
        <ele>4</ele>
        <time>2018-08-08T19:44:39Z</time>
      </trkpt>
      <trkpt lat="49.01695" lon="2.04381">
        <ele>5</ele>
        <time>2018-08-08T19:44:44Z</time>
      </trkpt>
      <trkpt lat="49.01689" lon="2.04391">
        <ele>5</ele>
        <time>2018-08-08T19:44:49Z</time>
      </trkpt>
      <trkpt lat="49.01681" lon="2.04403">
        <ele>6</ele>
        <time>2018-08-08T19:44:55Z</time>
      </trkpt>
      <trkpt lat="49.01675" lon="2.04413">
        <ele>7</ele>
        <time>2018-08-08T19:45:00Z</time>
      </trkpt>
      <trkpt lat="49.01667" lon="2.04423">
        <ele>8</ele>
        <time>2018-08-08T19:45:07Z</time>
      </trkpt>
      <trkpt lat="49.01659" lon="2.04431">
        <ele>10</ele>
        <time>2018-08-08T19:45:13Z</time>
      </trkpt>
      <trkpt lat="49.01652" lon="2.0444">
        <ele>12</ele>
        <time>2018-08-08T19:45:19Z</time>
      </trkpt>
      <trkpt lat="49.01644" lon="2.04451">
        <ele>14</ele>
        <time>2018-08-08T19:45:27Z</time>
      </trkpt>
      <trkpt lat="49.01637" lon="2.0446">
        <ele>15</ele>
        <time>2018-08-08T19:45:33Z</time>
      </trkpt>
      <trkpt lat="49.0163" lon="2.0447">
        <ele>17</ele>
        <time>2018-08-08T19:45:39Z</time>
      </trkpt>
      <trkpt lat="49.01623" lon="2.04482">
        <ele>17</ele>
        <time>2018-08-08T19:45:45Z</time>
      </trkpt>
      <trkpt lat="49.01616" lon="2.04493">
        <ele>20</ele>
        <time>2018-08-08T19:45:58Z</time>
      </trkpt>
      <trkpt lat="49.01609" lon="2.04504">
        <ele>22</ele>
        <time>2018-08-08T19:46:05Z</time>
      </trkpt>
      <trkpt lat="49.01601" lon="2.04515">
        <ele>24</ele>
        <time>2018-08-08T19:46:12Z</time>
      </trkpt>
      <trkpt lat="49.01596" lon="2.04526">
        <ele>25</ele>
        <time>2018-08-08T19:46:19Z</time>
      </trkpt>
      <trkpt lat="49.01589" lon="2.04536">
        <ele>27</ele>
        <time>2018-08-08T19:46:27Z</time>
      </trkpt>
      <trkpt lat="49.01581" lon="2.04547">
        <ele>27</ele>
        <time>2018-08-08T19:46:34Z</time>
      </trkpt>
      <trkpt lat="49.01574" lon="2.04557">
        <ele>28</ele>
        <time>2018-08-08T19:46:40Z</time>
      </trkpt>
      <trkpt lat="49.01568" lon="2.04567">
        <ele>28</ele>
        <time>2018-08-08T19:46:47Z</time>
      </trkpt>
      <trkpt lat="49.01561" lon="2.04577">
        <ele>34</ele>
        <time>2018-08-08T19:48:58Z</time>
      </trkpt>
      <trkpt lat="49.01556" lon="2.04589">
        <ele>36</ele>
        <time>2018-08-08T19:49:08Z</time>
      </trkpt>
      <trkpt lat="49.01551" lon="2.04602">
        <ele>37</ele>
        <time>2018-08-08T19:49:17Z</time>
      </trkpt>
      <trkpt lat="49.01546" lon="2.04615">
        <ele>38</ele>
        <time>2018-08-08T19:49:26Z</time>
      </trkpt>
      <trkpt lat="49.01545" lon="2.04629">
        <ele>39</ele>
        <time>2018-08-08T19:49:39Z</time>
      </trkpt>
      <trkpt lat="49.01551" lon="2.04642">
        <ele>39</ele>
        <time>2018-08-08T19:49:49Z</time>
      </trkpt>
      <trkpt lat="49.01558" lon="2.04651">
        <ele>39</ele>
        <time>2018-08-08T19:49:57Z</time>
      </trkpt>
      <trkpt lat="49.01568" lon="2.04659">
        <ele>38</ele>
        <time>2018-08-08T19:50:02Z</time>
      </trkpt>
      <trkpt lat="49.01577" lon="2.04662">
        <ele>38</ele>
        <time>2018-08-08T19:50:10Z</time>
      </trkpt>
      <trkpt lat="49.0158" lon="2.04677">
        <ele>37</ele>
        <time>2018-08-08T19:50:19Z</time>
      </trkpt>
      <trkpt lat="49.01586" lon="2.04687">
        <ele>36</ele>
        <time>2018-08-08T19:50:26Z</time>
      </trkpt>
      <trkpt lat="49.01594" lon="2.04695">
        <ele>35</ele>
        <time>2018-08-08T19:50:38Z</time>
      </trkpt>
      <trkpt lat="49.01601" lon="2.04705">
        <ele>35</ele>
        <time>2018-08-08T19:50:46Z</time>
      </trkpt>
      <trkpt lat="49.01607" lon="2.04715">
        <ele>33</ele>
        <time>2018-08-08T19:51:04Z</time>
      </trkpt>
      <trkpt lat="49.01617" lon="2.04713">
        <ele>33</ele>
        <time>2018-08-08T19:51:12Z</time>
      </trkpt>
      <trkpt lat="49.01626" lon="2.04707">
        <ele>30</ele>
        <time>2018-08-08T19:51:22Z</time>
      </trkpt>
      <trkpt lat="49.01636" lon="2.04705">
        <ele>29</ele>
        <time>2018-08-08T19:51:31Z</time>
      </trkpt>
      <trkpt lat="49.01646" lon="2.0471">
        <ele>27</ele>
        <time>2018-08-08T19:51:36Z</time>
      </trkpt>
      <trkpt lat="49.01654" lon="2.04717">
        <ele>26</ele>
        <time>2018-08-08T19:51:43Z</time>
      </trkpt>
      <trkpt lat="49.0166" lon="2.04729">
        <ele>25</ele>
        <time>2018-08-08T19:51:49Z</time>
      </trkpt>
      <trkpt lat="49.01666" lon="2.04742">
        <ele>24</ele>
        <time>2018-08-08T19:51:55Z</time>
      </trkpt>
      <trkpt lat="49.0167" lon="2.04755">
        <ele>23</ele>
        <time>2018-08-08T19:52:02Z</time>
      </trkpt>
      <trkpt lat="49.0167" lon="2.0477">
        <ele>22</ele>
        <time>2018-08-08T19:52:09Z</time>
      </trkpt>
      <trkpt lat="49.0167" lon="2.04784">
        <ele>22</ele>
        <time>2018-08-08T19:52:15Z</time>
      </trkpt>
      <trkpt lat="49.01669" lon="2.04798">
        <ele>21</ele>
        <time>2018-08-08T19:52:24Z</time>
      </trkpt>
      <trkpt lat="49.01666" lon="2.04812">
        <ele>20</ele>
        <time>2018-08-08T19:52:43Z</time>
      </trkpt>
      <trkpt lat="49.01662" lon="2.04826">
        <ele>19</ele>
        <time>2018-08-08T19:52:53Z</time>
      </trkpt>
      <trkpt lat="49.01657" lon="2.04839">
        <ele>18</ele>
        <time>2018-08-08T19:53:02Z</time>
      </trkpt>
      <trkpt lat="49.0165" lon="2.04847">
        <ele>17</ele>
        <time>2018-08-08T19:53:13Z</time>
      </trkpt>
      <trkpt lat="49.01642" lon="2.04854">
        <ele>16</ele>
        <time>2018-08-08T19:53:23Z</time>
      </trkpt>
      <trkpt lat="49.01634" lon="2.04862">
        <ele>16</ele>
        <time>2018-08-08T19:53:32Z</time>
      </trkpt>
      <trkpt lat="49.01626" lon="2.04872">
        <ele>16</ele>
        <time>2018-08-08T19:53:40Z</time>
      </trkpt>
      <trkpt lat="49.01619" lon="2.04881">
        <ele>15</ele>
        <time>2018-08-08T19:53:48Z</time>
      </trkpt>
      <trkpt lat="49.01612" lon="2.04891">
        <ele>15</ele>
        <time>2018-08-08T19:53:56Z</time>
      </trkpt>
      <trkpt lat="49.01605" lon="2.04899">
        <ele>14</ele>
        <time>2018-08-08T19:54:03Z</time>
      </trkpt>
      <trkpt lat="49.01598" lon="2.04909">
        <ele>13</ele>
        <time>2018-08-08T19:54:09Z</time>
      </trkpt>
      <trkpt lat="49.0159" lon="2.04919">
        <ele>12</ele>
        <time>2018-08-08T19:54:17Z</time>
      </trkpt>
      <trkpt lat="49.01585" lon="2.04931">
        <ele>11</ele>
        <time>2018-08-08T19:54:26Z</time>
      </trkpt>
      <trkpt lat="49.01581" lon="2.04945">
        <ele>11</ele>
        <time>2018-08-08T19:54:35Z</time>
      </trkpt>
      <trkpt lat="49.0158" lon="2.04959">
        <ele>11</ele>
        <time>2018-08-08T19:54:40Z</time>
      </trkpt>
      <trkpt lat="49.01579" lon="2.04975">
        <ele>11</ele>
        <time>2018-08-08T19:54:45Z</time>
      </trkpt>
      <trkpt lat="49.01578" lon="2.04991">
        <ele>11</ele>
        <time>2018-08-08T19:54:51Z</time>
      </trkpt>
      <trkpt lat="49.01577" lon="2.05007">
        <ele>13</ele>
        <time>2018-08-08T19:54:59Z</time>
      </trkpt>
      <trkpt lat="49.01574" lon="2.05021">
        <ele>13</ele>
        <time>2018-08-08T19:55:04Z</time>
      </trkpt>
      <trkpt lat="49.0157" lon="2.05034">
        <ele>14</ele>
        <time>2018-08-08T19:55:12Z</time>
      </trkpt>
      <trkpt lat="49.01564" lon="2.05046">
        <ele>16</ele>
        <time>2018-08-08T19:55:19Z</time>
      </trkpt>
      <trkpt lat="49.01557" lon="2.05058">
        <ele>17</ele>
        <time>2018-08-08T19:55:31Z</time>
      </trkpt>
      <trkpt lat="49.01551" lon="2.05069">
        <ele>17</ele>
        <time>2018-08-08T19:55:36Z</time>
      </trkpt>
      <trkpt lat="49.01545" lon="2.0508">
        <ele>17</ele>
        <time>2018-08-08T19:55:44Z</time>
      </trkpt>
      <trkpt lat="49.01539" lon="2.05091">
        <ele>16</ele>
        <time>2018-08-08T19:55:52Z</time>
      </trkpt>
      <trkpt lat="49.01532" lon="2.05102">
        <ele>15</ele>
        <time>2018-08-08T19:55:59Z</time>
      </trkpt>
      <trkpt lat="49.01526" lon="2.05114">
        <ele>15</ele>
        <time>2018-08-08T19:56:05Z</time>
      </trkpt>
      <trkpt lat="49.01519" lon="2.05125">
        <ele>14</ele>
        <time>2018-08-08T19:56:23Z</time>
      </trkpt>
      <trkpt lat="49.01513" lon="2.05136">
        <ele>14</ele>
        <time>2018-08-08T19:56:31Z</time>
      </trkpt>
      <trkpt lat="49.01508" lon="2.05147">
        <ele>13</ele>
        <time>2018-08-08T19:56:41Z</time>
      </trkpt>
      <trkpt lat="49.01501" lon="2.05161">
        <ele>13</ele>
        <time>2018-08-08T19:56:47Z</time>
      </trkpt>
      <trkpt lat="49.01496" lon="2.05174">
        <ele>13</ele>
        <time>2018-08-08T19:56:51Z</time>
      </trkpt>
      <trkpt lat="49.01491" lon="2.05185">
        <ele>13</ele>
        <time>2018-08-08T19:56:58Z</time>
      </trkpt>
      <trkpt lat="49.01485" lon="2.05197">
        <ele>13</ele>
        <time>2018-08-08T19:57:06Z</time>
      </trkpt>
      <trkpt lat="49.01478" lon="2.05209">
        <ele>14</ele>
        <time>2018-08-08T19:57:14Z</time>
      </trkpt>
      <trkpt lat="49.01471" lon="2.05219">
        <ele>14</ele>
        <time>2018-08-08T19:57:20Z</time>
      </trkpt>
      <trkpt lat="49.01464" lon="2.0523">
        <ele>14</ele>
        <time>2018-08-08T19:57:27Z</time>
      </trkpt>
      <trkpt lat="49.01458" lon="2.05241">
        <ele>14</ele>
        <time>2018-08-08T19:57:34Z</time>
      </trkpt>
      <trkpt lat="49.01452" lon="2.05253">
        <ele>15</ele>
        <time>2018-08-08T19:57:39Z</time>
      </trkpt>
      <trkpt lat="49.01447" lon="2.05266">
        <ele>14</ele>
        <time>2018-08-08T19:57:49Z</time>
      </trkpt>
      <trkpt lat="49.01441" lon="2.05277">
        <ele>13</ele>
        <time>2018-08-08T19:57:58Z</time>
      </trkpt>
      <trkpt lat="49.01435" lon="2.05289">
        <ele>12</ele>
        <time>2018-08-08T19:58:11Z</time>
      </trkpt>
      <trkpt lat="49.01429" lon="2.05301">
        <ele>11</ele>
        <time>2018-08-08T19:58:18Z</time>
      </trkpt>
      <trkpt lat="49.01424" lon="2.05313">
        <ele>10</ele>
        <time>2018-08-08T19:58:25Z</time>
      </trkpt>
      <trkpt lat="49.01421" lon="2.05328">
        <ele>9</ele>
        <time>2018-08-08T19:58:33Z</time>
      </trkpt>
      <trkpt lat="49.01419" lon="2.05341">
        <ele>8</ele>
        <time>2018-08-08T19:58:40Z</time>
      </trkpt>
      <trkpt lat="49.01416" lon="2.05356">
        <ele>7</ele>
        <time>2018-08-08T19:58:46Z</time>
      </trkpt>
      <trkpt lat="49.01413" lon="2.0537">
        <ele>7</ele>
        <time>2018-08-08T19:58:51Z</time>
      </trkpt>
      <trkpt lat="49.01411" lon="2.05385">
        <ele>6</ele>
        <time>2018-08-08T19:58:57Z</time>
      </trkpt>
      <trkpt lat="49.01408" lon="2.05398">
        <ele>6</ele>
        <time>2018-08-08T19:59:04Z</time>
      </trkpt>
      <trkpt lat="49.01405" lon="2.05412">
        <ele>6</ele>
        <time>2018-08-08T19:59:10Z</time>
      </trkpt>
      <trkpt lat="49.01402" lon="2.05426">
        <ele>6</ele>
        <time>2018-08-08T19:59:17Z</time>
      </trkpt>
      <trkpt lat="49.01399" lon="2.0544">
        <ele>7</ele>
        <time>2018-08-08T19:59:24Z</time>
      </trkpt>
      <trkpt lat="49.01396" lon="2.05454">
        <ele>7</ele>
        <time>2018-08-08T19:59:31Z</time>
      </trkpt>
      <trkpt lat="49.01393" lon="2.05469">
        <ele>7</ele>
        <time>2018-08-08T19:59:37Z</time>
      </trkpt>
      <trkpt lat="49.0139" lon="2.05483">
        <ele>8</ele>
        <time>2018-08-08T19:59:43Z</time>
      </trkpt>
      <trkpt lat="49.01387" lon="2.05495">
        <ele>8</ele>
        <time>2018-08-08T19:59:50Z</time>
      </trkpt>
      <trkpt lat="49.01382" lon="2.05508">
        <ele>9</ele>
        <time>2018-08-08T19:59:56Z</time>
      </trkpt>
      <trkpt lat="49.01378" lon="2.05522">
        <ele>9</ele>
        <time>2018-08-08T20:00:02Z</time>
      </trkpt>
      <trkpt lat="49.01375" lon="2.05536">
        <ele>10</ele>
        <time>2018-08-08T20:00:09Z</time>
      </trkpt>
      <trkpt lat="49.01372" lon="2.0555">
        <ele>10</ele>
        <time>2018-08-08T20:00:17Z</time>
      </trkpt>
      <trkpt lat="49.01366" lon="2.05561">
        <ele>11</ele>
        <time>2018-08-08T20:00:29Z</time>
      </trkpt>
      <trkpt lat="49.01358" lon="2.05567">
        <ele>11</ele>
        <time>2018-08-08T20:00:36Z</time>
      </trkpt>
      <trkpt lat="49.01348" lon="2.05571">
        <ele>11</ele>
        <time>2018-08-08T20:00:42Z</time>
      </trkpt>
      <trkpt lat="49.01339" lon="2.05576">
        <ele>12</ele>
        <time>2018-08-08T20:00:52Z</time>
      </trkpt>
      <trkpt lat="49.01334" lon="2.0559">
        <ele>12</ele>
        <time>2018-08-08T20:01:06Z</time>
      </trkpt>
      <trkpt lat="49.01331" lon="2.05605">
        <ele>13</ele>
        <time>2018-08-08T20:01:12Z</time>
      </trkpt>
      <trkpt lat="49.0133" lon="2.0562">
        <ele>13</ele>
        <time>2018-08-08T20:01:19Z</time>
      </trkpt>
      <trkpt lat="49.01334" lon="2.05634">
        <ele>14</ele>
        <time>2018-08-08T20:01:28Z</time>
      </trkpt>
      <trkpt lat="49.0134" lon="2.05645">
        <ele>14</ele>
        <time>2018-08-08T20:01:36Z</time>
      </trkpt>
      <trkpt lat="49.01348" lon="2.05655">
        <ele>15</ele>
        <time>2018-08-08T20:01:42Z</time>
      </trkpt>
      <trkpt lat="49.01354" lon="2.05668">
        <ele>15</ele>
        <time>2018-08-08T20:01:49Z</time>
      </trkpt>
      <trkpt lat="49.0136" lon="2.0568">
        <ele>15</ele>
        <time>2018-08-08T20:01:54Z</time>
      </trkpt>
      <trkpt lat="49.01367" lon="2.05691">
        <ele>15</ele>
        <time>2018-08-08T20:02:00Z</time>
      </trkpt>
      <trkpt lat="49.01375" lon="2.05702">
        <ele>15</ele>
        <time>2018-08-08T20:02:07Z</time>
      </trkpt>
      <trkpt lat="49.01381" lon="2.05713">
        <ele>16</ele>
        <time>2018-08-08T20:02:14Z</time>
      </trkpt>
      <trkpt lat="49.01389" lon="2.05723">
        <ele>16</ele>
        <time>2018-08-08T20:02:21Z</time>
      </trkpt>
      <trkpt lat="49.01395" lon="2.05734">
        <ele>17</ele>
        <time>2018-08-08T20:02:26Z</time>
      </trkpt>
      <trkpt lat="49.01401" lon="2.05744">
        <ele>17</ele>
        <time>2018-08-08T20:02:32Z</time>
      </trkpt>
      <trkpt lat="49.01408" lon="2.05754">
        <ele>18</ele>
        <time>2018-08-08T20:02:39Z</time>
      </trkpt>
      <trkpt lat="49.01412" lon="2.05766">
        <ele>18</ele>
        <time>2018-08-08T20:02:46Z</time>
      </trkpt>
      <trkpt lat="49.01416" lon="2.05779">
        <ele>18</ele>
        <time>2018-08-08T20:02:54Z</time>
      </trkpt>
      <trkpt lat="49.01422" lon="2.05791">
        <ele>18</ele>
        <time>2018-08-08T20:03:01Z</time>
      </trkpt>
      <trkpt lat="49.01428" lon="2.05802">
        <ele>18</ele>
        <time>2018-08-08T20:03:08Z</time>
      </trkpt>
      <trkpt lat="49.01434" lon="2.05815">
        <ele>18</ele>
        <time>2018-08-08T20:03:15Z</time>
      </trkpt>
      <trkpt lat="49.0144" lon="2.05825">
        <ele>19</ele>
        <time>2018-08-08T20:03:21Z</time>
      </trkpt>
      <trkpt lat="49.01439" lon="2.0584">
        <ele>19</ele>
        <time>2018-08-08T20:03:29Z</time>
      </trkpt>
      <trkpt lat="49.01436" lon="2.05854">
        <ele>19</ele>
        <time>2018-08-08T20:03:38Z</time>
      </trkpt>
      <trkpt lat="49.01436" lon="2.05868">
        <ele>19</ele>
        <time>2018-08-08T20:04:13Z</time>
      </trkpt>
    </trkseg>
  </trk>
</gpx>